<?xml version="1.0" encoding="UTF-8" standalone="no" ?>
<gpx xmlns="http://www.topografix.com/GPX/1/1" xmlns:xsi="http://www.w3.org/2001/XMLSchema-instance" xsi:schemaLocation="http://www.topografix.com/GPX/1/1 http://www.topografix.com/GPX/1/1/gpx.xsd" version="1.1" creator="VisuGPX - https://www.visugpx.com">
  <metadata>
    <name>83-Me-Salernes</name>
    <desc><![CDATA[83-Me-Salernes : montagne de Serre

2023-04-12]]></desc>
  </metadata>
  <trk>
    <name><![CDATA[2023-04-12-01]]></name>
    <extensions>
      <line xmlns="http://www.topografix.com/GPX/gpx_style/0/2">
        <width>3</width>
      </line>
    </extensions>
    <trkseg>
      <trkpt lat="43.54719" lon="6.20338">
        <ele>366.2</ele>
        <time>2023-04-12T12:19:36.325Z</time>
      </trkpt>
      <trkpt lat="43.54717" lon="6.20375">
        <ele>368</ele>
        <time>2023-04-12T12:20:11.699Z</time>
      </trkpt>
      <trkpt lat="43.5466" lon="6.20439">
        <ele>376</ele>
        <time>2023-04-12T12:21:48.924Z</time>
      </trkpt>
      <trkpt lat="43.54586" lon="6.20494">
        <ele>387.6</ele>
        <time>2023-04-12T12:23:40.565Z</time>
      </trkpt>
      <trkpt lat="43.54537" lon="6.20541">
        <ele>391.3</ele>
        <time>2023-04-12T12:24:59.505Z</time>
      </trkpt>
      <trkpt lat="43.54512" lon="6.20529">
        <ele>392.4</ele>
        <time>2023-04-12T12:25:33.500Z</time>
      </trkpt>
      <trkpt lat="43.54495" lon="6.20552">
        <ele>392.8</ele>
        <time>2023-04-12T12:26:04.928Z</time>
      </trkpt>
      <trkpt lat="43.54476" lon="6.2067">
        <ele>390</ele>
        <time>2023-04-12T12:27:59.881Z</time>
      </trkpt>
      <trkpt lat="43.54474" lon="6.20753">
        <ele>389.7</ele>
        <time>2023-04-12T12:29:19.143Z</time>
      </trkpt>
      <trkpt lat="43.54486" lon="6.20808">
        <ele>385.8</ele>
        <time>2023-04-12T12:30:14.000Z</time>
      </trkpt>
      <trkpt lat="43.54485" lon="6.2081">
        <ele>376.9</ele>
        <time>2023-04-12T12:30:24.000Z</time>
      </trkpt>
      <trkpt lat="43.54488" lon="6.20816">
        <ele>376.2</ele>
        <time>2023-04-12T12:30:34.000Z</time>
      </trkpt>
      <trkpt lat="43.54489" lon="6.20828">
        <ele>376.8</ele>
        <time>2023-04-12T12:30:44.000Z</time>
      </trkpt>
      <trkpt lat="43.54484" lon="6.20839">
        <ele>378.2</ele>
        <time>2023-04-12T12:30:54.000Z</time>
      </trkpt>
      <trkpt lat="43.5448" lon="6.20853">
        <ele>379.6</ele>
        <time>2023-04-12T12:31:04.000Z</time>
      </trkpt>
      <trkpt lat="43.5448" lon="6.20866">
        <ele>380.1</ele>
        <time>2023-04-12T12:31:14.000Z</time>
      </trkpt>
      <trkpt lat="43.54481" lon="6.20882">
        <ele>382.4</ele>
        <time>2023-04-12T12:31:24.000Z</time>
      </trkpt>
      <trkpt lat="43.54482" lon="6.20895">
        <ele>383.3</ele>
        <time>2023-04-12T12:31:34.000Z</time>
      </trkpt>
      <trkpt lat="43.54482" lon="6.20909">
        <ele>385.1</ele>
        <time>2023-04-12T12:31:44.000Z</time>
      </trkpt>
      <trkpt lat="43.54481" lon="6.20922">
        <ele>385.6</ele>
        <time>2023-04-12T12:31:54.000Z</time>
      </trkpt>
      <trkpt lat="43.54479" lon="6.20935">
        <ele>386.7</ele>
        <time>2023-04-12T12:32:04.000Z</time>
      </trkpt>
      <trkpt lat="43.5448" lon="6.20948">
        <ele>388.5</ele>
        <time>2023-04-12T12:32:14.000Z</time>
      </trkpt>
      <trkpt lat="43.54482" lon="6.20959">
        <ele>390.2</ele>
        <time>2023-04-12T12:32:24.000Z</time>
      </trkpt>
      <trkpt lat="43.54483" lon="6.20963">
        <ele>389.4</ele>
        <time>2023-04-12T12:32:34.000Z</time>
      </trkpt>
      <trkpt lat="43.54484" lon="6.20975">
        <ele>391.1</ele>
        <time>2023-04-12T12:32:44.000Z</time>
      </trkpt>
      <trkpt lat="43.54483" lon="6.20984">
        <ele>392.1</ele>
        <time>2023-04-12T12:32:54.000Z</time>
      </trkpt>
      <trkpt lat="43.5448" lon="6.20993">
        <ele>393</ele>
        <time>2023-04-12T12:33:04.000Z</time>
      </trkpt>
      <trkpt lat="43.54476" lon="6.21002">
        <ele>393.9</ele>
        <time>2023-04-12T12:33:14.000Z</time>
      </trkpt>
      <trkpt lat="43.5447" lon="6.21014">
        <ele>394.2</ele>
        <time>2023-04-12T12:33:24.000Z</time>
      </trkpt>
      <trkpt lat="43.54468" lon="6.21025">
        <ele>394.7</ele>
        <time>2023-04-12T12:33:34.000Z</time>
      </trkpt>
      <trkpt lat="43.54465" lon="6.21033">
        <ele>395</ele>
        <time>2023-04-12T12:33:44.000Z</time>
      </trkpt>
      <trkpt lat="43.54459" lon="6.21039">
        <ele>395.1</ele>
        <time>2023-04-12T12:33:54.000Z</time>
      </trkpt>
      <trkpt lat="43.54449" lon="6.21051">
        <ele>396.2</ele>
        <time>2023-04-12T12:34:04.000Z</time>
      </trkpt>
      <trkpt lat="43.54442" lon="6.21066">
        <ele>396.5</ele>
        <time>2023-04-12T12:34:14.000Z</time>
      </trkpt>
      <trkpt lat="43.54435" lon="6.21073">
        <ele>396.9</ele>
        <time>2023-04-12T12:34:24.000Z</time>
      </trkpt>
      <trkpt lat="43.54432" lon="6.21083">
        <ele>397.8</ele>
        <time>2023-04-12T12:34:34.000Z</time>
      </trkpt>
      <trkpt lat="43.54428" lon="6.21097">
        <ele>399.3</ele>
        <time>2023-04-12T12:34:44.000Z</time>
      </trkpt>
      <trkpt lat="43.54425" lon="6.21113">
        <ele>400</ele>
        <time>2023-04-12T12:34:54.000Z</time>
      </trkpt>
      <trkpt lat="43.54424" lon="6.21125">
        <ele>401</ele>
        <time>2023-04-12T12:35:04.000Z</time>
      </trkpt>
      <trkpt lat="43.54419" lon="6.21142">
        <ele>402.2</ele>
        <time>2023-04-12T12:35:14.000Z</time>
      </trkpt>
      <trkpt lat="43.54417" lon="6.2116">
        <ele>403.2</ele>
        <time>2023-04-12T12:35:24.000Z</time>
      </trkpt>
      <trkpt lat="43.54414" lon="6.21177">
        <ele>403.9</ele>
        <time>2023-04-12T12:35:34.000Z</time>
      </trkpt>
      <trkpt lat="43.54408" lon="6.21191">
        <ele>404.8</ele>
        <time>2023-04-12T12:35:44.000Z</time>
      </trkpt>
      <trkpt lat="43.54402" lon="6.21206">
        <ele>406.3</ele>
        <time>2023-04-12T12:35:54.000Z</time>
      </trkpt>
      <trkpt lat="43.54397" lon="6.21218">
        <ele>407.1</ele>
        <time>2023-04-12T12:36:04.000Z</time>
      </trkpt>
      <trkpt lat="43.54391" lon="6.21235">
        <ele>408.3</ele>
        <time>2023-04-12T12:36:14.000Z</time>
      </trkpt>
      <trkpt lat="43.54387" lon="6.21251">
        <ele>408.8</ele>
        <time>2023-04-12T12:36:24.000Z</time>
      </trkpt>
      <trkpt lat="43.54385" lon="6.21266">
        <ele>409.5</ele>
        <time>2023-04-12T12:36:34.000Z</time>
      </trkpt>
      <trkpt lat="43.54384" lon="6.21283">
        <ele>411.1</ele>
        <time>2023-04-12T12:36:44.000Z</time>
      </trkpt>
      <trkpt lat="43.54383" lon="6.21302">
        <ele>411.6</ele>
        <time>2023-04-12T12:36:54.000Z</time>
      </trkpt>
      <trkpt lat="43.54383" lon="6.21313">
        <ele>412.2</ele>
        <time>2023-04-12T12:37:04.000Z</time>
      </trkpt>
      <trkpt lat="43.54372" lon="6.21318">
        <ele>412.8</ele>
        <time>2023-04-12T12:37:14.000Z</time>
      </trkpt>
      <trkpt lat="43.54365" lon="6.21329">
        <ele>412.6</ele>
        <time>2023-04-12T12:37:24.000Z</time>
      </trkpt>
      <trkpt lat="43.54359" lon="6.21334">
        <ele>412.8</ele>
        <time>2023-04-12T12:37:34.000Z</time>
      </trkpt>
      <trkpt lat="43.54354" lon="6.21337">
        <ele>412.8</ele>
        <time>2023-04-12T12:37:44.000Z</time>
      </trkpt>
      <trkpt lat="43.54351" lon="6.21338">
        <ele>412.4</ele>
        <time>2023-04-12T12:37:54.000Z</time>
      </trkpt>
      <trkpt lat="43.54353" lon="6.21337">
        <ele>412.9</ele>
        <time>2023-04-12T12:38:04.000Z</time>
      </trkpt>
      <trkpt lat="43.54354" lon="6.21335">
        <ele>412.5</ele>
        <time>2023-04-12T12:38:14.000Z</time>
      </trkpt>
      <trkpt lat="43.54349" lon="6.21325">
        <ele>412.8</ele>
        <time>2023-04-12T12:38:24.000Z</time>
      </trkpt>
      <trkpt lat="43.54347" lon="6.21315">
        <ele>412.3</ele>
        <time>2023-04-12T12:38:34.000Z</time>
      </trkpt>
      <trkpt lat="43.54344" lon="6.21302">
        <ele>411.9</ele>
        <time>2023-04-12T12:38:44.000Z</time>
      </trkpt>
      <trkpt lat="43.54342" lon="6.21294">
        <ele>411.2</ele>
        <time>2023-04-12T12:38:54.000Z</time>
      </trkpt>
      <trkpt lat="43.54342" lon="6.21294">
        <ele>411.6</ele>
        <time>2023-04-12T12:39:04.000Z</time>
      </trkpt>
      <trkpt lat="43.54342" lon="6.21293">
        <ele>411.6</ele>
        <time>2023-04-12T12:39:14.000Z</time>
      </trkpt>
      <trkpt lat="43.54341" lon="6.21294">
        <ele>411.4</ele>
        <time>2023-04-12T12:39:24.000Z</time>
      </trkpt>
      <trkpt lat="43.5434" lon="6.21294">
        <ele>411.5</ele>
        <time>2023-04-12T12:39:34.000Z</time>
      </trkpt>
      <trkpt lat="43.54341" lon="6.21294">
        <ele>411.4</ele>
        <time>2023-04-12T12:39:44.000Z</time>
      </trkpt>
      <trkpt lat="43.54341" lon="6.21294">
        <ele>411.4</ele>
        <time>2023-04-12T12:39:54.000Z</time>
      </trkpt>
      <trkpt lat="43.54341" lon="6.21294">
        <ele>411.5</ele>
        <time>2023-04-12T12:40:04.000Z</time>
      </trkpt>
      <trkpt lat="43.54341" lon="6.21295">
        <ele>411.9</ele>
        <time>2023-04-12T12:40:14.000Z</time>
      </trkpt>
      <trkpt lat="43.5434" lon="6.21296">
        <ele>411.7</ele>
        <time>2023-04-12T12:40:24.000Z</time>
      </trkpt>
      <trkpt lat="43.5434" lon="6.21295">
        <ele>411.8</ele>
        <time>2023-04-12T12:40:34.000Z</time>
      </trkpt>
      <trkpt lat="43.5434" lon="6.21295">
        <ele>411.8</ele>
        <time>2023-04-12T12:40:44.000Z</time>
      </trkpt>
      <trkpt lat="43.5434" lon="6.21294">
        <ele>411.8</ele>
        <time>2023-04-12T12:40:54.000Z</time>
      </trkpt>
      <trkpt lat="43.54339" lon="6.21294">
        <ele>411.6</ele>
        <time>2023-04-12T12:41:04.000Z</time>
      </trkpt>
      <trkpt lat="43.54339" lon="6.21295">
        <ele>411.7</ele>
        <time>2023-04-12T12:41:14.000Z</time>
      </trkpt>
      <trkpt lat="43.54337" lon="6.21296">
        <ele>411.2</ele>
        <time>2023-04-12T12:41:24.000Z</time>
      </trkpt>
      <trkpt lat="43.54336" lon="6.21297">
        <ele>411.9</ele>
        <time>2023-04-12T12:41:34.000Z</time>
      </trkpt>
      <trkpt lat="43.54337" lon="6.21296">
        <ele>411.9</ele>
        <time>2023-04-12T12:41:44.000Z</time>
      </trkpt>
      <trkpt lat="43.54336" lon="6.21297">
        <ele>411.8</ele>
        <time>2023-04-12T12:41:54.000Z</time>
      </trkpt>
      <trkpt lat="43.54337" lon="6.21297">
        <ele>411.6</ele>
        <time>2023-04-12T12:42:04.000Z</time>
      </trkpt>
      <trkpt lat="43.54337" lon="6.21298">
        <ele>411.9</ele>
        <time>2023-04-12T12:42:14.000Z</time>
      </trkpt>
      <trkpt lat="43.54338" lon="6.21297">
        <ele>412</ele>
        <time>2023-04-12T12:42:24.000Z</time>
      </trkpt>
      <trkpt lat="43.54339" lon="6.21297">
        <ele>412</ele>
        <time>2023-04-12T12:42:34.000Z</time>
      </trkpt>
      <trkpt lat="43.54339" lon="6.21297">
        <ele>412</ele>
        <time>2023-04-12T12:42:44.000Z</time>
      </trkpt>
      <trkpt lat="43.54338" lon="6.21297">
        <ele>411.9</ele>
        <time>2023-04-12T12:42:54.000Z</time>
      </trkpt>
      <trkpt lat="43.54337" lon="6.21298">
        <ele>411.8</ele>
        <time>2023-04-12T12:43:04.000Z</time>
      </trkpt>
      <trkpt lat="43.54336" lon="6.21298">
        <ele>411.7</ele>
        <time>2023-04-12T12:43:14.000Z</time>
      </trkpt>
      <trkpt lat="43.54336" lon="6.21299">
        <ele>411.2</ele>
        <time>2023-04-12T12:43:24.000Z</time>
      </trkpt>
      <trkpt lat="43.54337" lon="6.21301">
        <ele>411.7</ele>
        <time>2023-04-12T12:43:34.000Z</time>
      </trkpt>
      <trkpt lat="43.54338" lon="6.21302">
        <ele>411.8</ele>
        <time>2023-04-12T12:43:44.000Z</time>
      </trkpt>
      <trkpt lat="43.54341" lon="6.21306">
        <ele>411.9</ele>
        <time>2023-04-12T12:43:54.000Z</time>
      </trkpt>
      <trkpt lat="43.54341" lon="6.21311">
        <ele>411.4</ele>
        <time>2023-04-12T12:44:04.000Z</time>
      </trkpt>
      <trkpt lat="43.54342" lon="6.21316">
        <ele>412.8</ele>
        <time>2023-04-12T12:44:14.000Z</time>
      </trkpt>
      <trkpt lat="43.54341" lon="6.21314">
        <ele>412</ele>
        <time>2023-04-12T12:44:24.000Z</time>
      </trkpt>
      <trkpt lat="43.54341" lon="6.21305">
        <ele>412.2</ele>
        <time>2023-04-12T12:44:34.000Z</time>
      </trkpt>
      <trkpt lat="43.54339" lon="6.21304">
        <ele>412.3</ele>
        <time>2023-04-12T12:44:44.000Z</time>
      </trkpt>
      <trkpt lat="43.54338" lon="6.21304">
        <ele>412.3</ele>
        <time>2023-04-12T12:44:54.000Z</time>
      </trkpt>
      <trkpt lat="43.54338" lon="6.21303">
        <ele>411.8</ele>
        <time>2023-04-12T12:45:04.000Z</time>
      </trkpt>
      <trkpt lat="43.54338" lon="6.21302">
        <ele>411.8</ele>
        <time>2023-04-12T12:45:14.000Z</time>
      </trkpt>
      <trkpt lat="43.54338" lon="6.213">
        <ele>411.7</ele>
        <time>2023-04-12T12:45:24.000Z</time>
      </trkpt>
      <trkpt lat="43.54338" lon="6.21295">
        <ele>412</ele>
        <time>2023-04-12T12:45:34.000Z</time>
      </trkpt>
      <trkpt lat="43.54338" lon="6.2129">
        <ele>411.3</ele>
        <time>2023-04-12T12:45:44.000Z</time>
      </trkpt>
      <trkpt lat="43.54339" lon="6.2128">
        <ele>410.6</ele>
        <time>2023-04-12T12:45:54.000Z</time>
      </trkpt>
      <trkpt lat="43.5434" lon="6.21272">
        <ele>409.4</ele>
        <time>2023-04-12T12:46:04.000Z</time>
      </trkpt>
      <trkpt lat="43.54342" lon="6.21262">
        <ele>409.6</ele>
        <time>2023-04-12T12:46:14.000Z</time>
      </trkpt>
      <trkpt lat="43.54344" lon="6.21253">
        <ele>409.2</ele>
        <time>2023-04-12T12:46:24.000Z</time>
      </trkpt>
      <trkpt lat="43.54341" lon="6.21247">
        <ele>408.3</ele>
        <time>2023-04-12T12:46:34.000Z</time>
      </trkpt>
      <trkpt lat="43.54339" lon="6.21244">
        <ele>407.7</ele>
        <time>2023-04-12T12:46:44.000Z</time>
      </trkpt>
      <trkpt lat="43.54341" lon="6.21237">
        <ele>406.3</ele>
        <time>2023-04-12T12:46:54.000Z</time>
      </trkpt>
      <trkpt lat="43.54347" lon="6.21234">
        <ele>406.8</ele>
        <time>2023-04-12T12:47:04.000Z</time>
      </trkpt>
      <trkpt lat="43.5435" lon="6.21222">
        <ele>407.1</ele>
        <time>2023-04-12T12:47:14.000Z</time>
      </trkpt>
      <trkpt lat="43.54347" lon="6.21221">
        <ele>406.9</ele>
        <time>2023-04-12T12:47:24.000Z</time>
      </trkpt>
      <trkpt lat="43.54343" lon="6.21216">
        <ele>406.3</ele>
        <time>2023-04-12T12:47:34.000Z</time>
      </trkpt>
      <trkpt lat="43.5434" lon="6.21206">
        <ele>404.9</ele>
        <time>2023-04-12T12:47:44.000Z</time>
      </trkpt>
      <trkpt lat="43.54336" lon="6.21198">
        <ele>403.6</ele>
        <time>2023-04-12T12:47:54.000Z</time>
      </trkpt>
      <trkpt lat="43.54336" lon="6.21189">
        <ele>402.7</ele>
        <time>2023-04-12T12:48:04.000Z</time>
      </trkpt>
      <trkpt lat="43.54335" lon="6.21185">
        <ele>401.3</ele>
        <time>2023-04-12T12:48:14.000Z</time>
      </trkpt>
      <trkpt lat="43.5433" lon="6.21177">
        <ele>399.7</ele>
        <time>2023-04-12T12:48:24.000Z</time>
      </trkpt>
      <trkpt lat="43.54322" lon="6.21176">
        <ele>397.9</ele>
        <time>2023-04-12T12:48:34.000Z</time>
      </trkpt>
      <trkpt lat="43.54319" lon="6.21169">
        <ele>396.4</ele>
        <time>2023-04-12T12:48:44.000Z</time>
      </trkpt>
      <trkpt lat="43.54317" lon="6.21166">
        <ele>395.6</ele>
        <time>2023-04-12T12:48:54.000Z</time>
      </trkpt>
      <trkpt lat="43.54311" lon="6.21161">
        <ele>394.9</ele>
        <time>2023-04-12T12:49:04.000Z</time>
      </trkpt>
      <trkpt lat="43.54305" lon="6.21162">
        <ele>393.7</ele>
        <time>2023-04-12T12:49:14.000Z</time>
      </trkpt>
      <trkpt lat="43.54301" lon="6.21159">
        <ele>392.3</ele>
        <time>2023-04-12T12:49:24.000Z</time>
      </trkpt>
      <trkpt lat="43.54298" lon="6.21156">
        <ele>390.9</ele>
        <time>2023-04-12T12:49:34.000Z</time>
      </trkpt>
      <trkpt lat="43.54296" lon="6.21148">
        <ele>390</ele>
        <time>2023-04-12T12:49:44.000Z</time>
      </trkpt>
      <trkpt lat="43.54292" lon="6.21141">
        <ele>388.8</ele>
        <time>2023-04-12T12:49:54.000Z</time>
      </trkpt>
      <trkpt lat="43.5429" lon="6.2114">
        <ele>387.9</ele>
        <time>2023-04-12T12:50:04.000Z</time>
      </trkpt>
      <trkpt lat="43.54288" lon="6.2114">
        <ele>387.8</ele>
        <time>2023-04-12T12:50:14.000Z</time>
      </trkpt>
      <trkpt lat="43.54287" lon="6.21142">
        <ele>387.8</ele>
        <time>2023-04-12T12:50:24.000Z</time>
      </trkpt>
      <trkpt lat="43.54287" lon="6.21143">
        <ele>388</ele>
        <time>2023-04-12T12:50:34.000Z</time>
      </trkpt>
      <trkpt lat="43.54288" lon="6.21139">
        <ele>388</ele>
        <time>2023-04-12T12:50:44.000Z</time>
      </trkpt>
      <trkpt lat="43.54292" lon="6.2113">
        <ele>387.6</ele>
        <time>2023-04-12T12:50:54.000Z</time>
      </trkpt>
      <trkpt lat="43.54292" lon="6.21126">
        <ele>387.6</ele>
        <time>2023-04-12T12:51:04.000Z</time>
      </trkpt>
      <trkpt lat="43.5429" lon="6.21121">
        <ele>386.6</ele>
        <time>2023-04-12T12:51:14.000Z</time>
      </trkpt>
      <trkpt lat="43.54286" lon="6.21114">
        <ele>385.7</ele>
        <time>2023-04-12T12:51:24.000Z</time>
      </trkpt>
      <trkpt lat="43.54285" lon="6.21107">
        <ele>384.4</ele>
        <time>2023-04-12T12:51:34.000Z</time>
      </trkpt>
      <trkpt lat="43.54281" lon="6.21101">
        <ele>382.9</ele>
        <time>2023-04-12T12:51:44.000Z</time>
      </trkpt>
      <trkpt lat="43.54281" lon="6.211">
        <ele>383.1</ele>
        <time>2023-04-12T12:51:54.000Z</time>
      </trkpt>
      <trkpt lat="43.54282" lon="6.21097">
        <ele>383.2</ele>
        <time>2023-04-12T12:52:04.000Z</time>
      </trkpt>
      <trkpt lat="43.54284" lon="6.21094">
        <ele>382.9</ele>
        <time>2023-04-12T12:52:14.000Z</time>
      </trkpt>
      <trkpt lat="43.54287" lon="6.2109">
        <ele>383.6</ele>
        <time>2023-04-12T12:52:24.000Z</time>
      </trkpt>
      <trkpt lat="43.54286" lon="6.2109">
        <ele>383.8</ele>
        <time>2023-04-12T12:52:34.000Z</time>
      </trkpt>
      <trkpt lat="43.54286" lon="6.21088">
        <ele>383.8</ele>
        <time>2023-04-12T12:52:44.000Z</time>
      </trkpt>
      <trkpt lat="43.54285" lon="6.21085">
        <ele>383.5</ele>
        <time>2023-04-12T12:52:54.000Z</time>
      </trkpt>
      <trkpt lat="43.5428" lon="6.21084">
        <ele>383.2</ele>
        <time>2023-04-12T12:53:04.000Z</time>
      </trkpt>
      <trkpt lat="43.54277" lon="6.21083">
        <ele>382.1</ele>
        <time>2023-04-12T12:53:14.000Z</time>
      </trkpt>
      <trkpt lat="43.54271" lon="6.21088">
        <ele>381.2</ele>
        <time>2023-04-12T12:53:24.000Z</time>
      </trkpt>
      <trkpt lat="43.54271" lon="6.21087">
        <ele>380.5</ele>
        <time>2023-04-12T12:53:34.000Z</time>
      </trkpt>
      <trkpt lat="43.54264" lon="6.21096">
        <ele>380</ele>
        <time>2023-04-12T12:53:44.000Z</time>
      </trkpt>
      <trkpt lat="43.54259" lon="6.21099">
        <ele>378.4</ele>
        <time>2023-04-12T12:53:54.000Z</time>
      </trkpt>
      <trkpt lat="43.54255" lon="6.21103">
        <ele>377</ele>
        <time>2023-04-12T12:54:04.000Z</time>
      </trkpt>
      <trkpt lat="43.54249" lon="6.21106">
        <ele>375.9</ele>
        <time>2023-04-12T12:54:14.000Z</time>
      </trkpt>
      <trkpt lat="43.54244" lon="6.21106">
        <ele>374.3</ele>
        <time>2023-04-12T12:54:24.000Z</time>
      </trkpt>
      <trkpt lat="43.54239" lon="6.21104">
        <ele>373.2</ele>
        <time>2023-04-12T12:54:34.000Z</time>
      </trkpt>
      <trkpt lat="43.54235" lon="6.21105">
        <ele>371.4</ele>
        <time>2023-04-12T12:54:44.000Z</time>
      </trkpt>
      <trkpt lat="43.54231" lon="6.21103">
        <ele>370.1</ele>
        <time>2023-04-12T12:54:54.000Z</time>
      </trkpt>
      <trkpt lat="43.54226" lon="6.21102">
        <ele>368.9</ele>
        <time>2023-04-12T12:55:04.000Z</time>
      </trkpt>
      <trkpt lat="43.5422" lon="6.21102">
        <ele>367.1</ele>
        <time>2023-04-12T12:55:14.000Z</time>
      </trkpt>
      <trkpt lat="43.54217" lon="6.211">
        <ele>365.4</ele>
        <time>2023-04-12T12:55:24.000Z</time>
      </trkpt>
      <trkpt lat="43.54212" lon="6.21099">
        <ele>364.4</ele>
        <time>2023-04-12T12:55:34.000Z</time>
      </trkpt>
      <trkpt lat="43.54207" lon="6.21097">
        <ele>362.9</ele>
        <time>2023-04-12T12:55:44.000Z</time>
      </trkpt>
      <trkpt lat="43.54204" lon="6.21097">
        <ele>361.4</ele>
        <time>2023-04-12T12:55:54.000Z</time>
      </trkpt>
      <trkpt lat="43.54199" lon="6.21097">
        <ele>359.9</ele>
        <time>2023-04-12T12:56:04.000Z</time>
      </trkpt>
      <trkpt lat="43.54192" lon="6.21096">
        <ele>358.6</ele>
        <time>2023-04-12T12:56:14.000Z</time>
      </trkpt>
      <trkpt lat="43.54186" lon="6.21096">
        <ele>357</ele>
        <time>2023-04-12T12:56:24.000Z</time>
      </trkpt>
      <trkpt lat="43.5418" lon="6.21097">
        <ele>355.2</ele>
        <time>2023-04-12T12:56:34.000Z</time>
      </trkpt>
      <trkpt lat="43.54174" lon="6.21097">
        <ele>353.5</ele>
        <time>2023-04-12T12:56:44.000Z</time>
      </trkpt>
      <trkpt lat="43.54167" lon="6.21099">
        <ele>352.1</ele>
        <time>2023-04-12T12:56:54.000Z</time>
      </trkpt>
      <trkpt lat="43.54159" lon="6.21104">
        <ele>350.4</ele>
        <time>2023-04-12T12:57:04.000Z</time>
      </trkpt>
      <trkpt lat="43.54152" lon="6.21108">
        <ele>348.8</ele>
        <time>2023-04-12T12:57:14.000Z</time>
      </trkpt>
      <trkpt lat="43.54146" lon="6.21109">
        <ele>347.2</ele>
        <time>2023-04-12T12:57:24.000Z</time>
      </trkpt>
      <trkpt lat="43.5414" lon="6.2111">
        <ele>345.3</ele>
        <time>2023-04-12T12:57:34.000Z</time>
      </trkpt>
      <trkpt lat="43.54133" lon="6.21109">
        <ele>344.3</ele>
        <time>2023-04-12T12:57:44.000Z</time>
      </trkpt>
      <trkpt lat="43.54124" lon="6.2111">
        <ele>342.8</ele>
        <time>2023-04-12T12:57:54.000Z</time>
      </trkpt>
      <trkpt lat="43.54115" lon="6.21112">
        <ele>341.3</ele>
        <time>2023-04-12T12:58:04.000Z</time>
      </trkpt>
      <trkpt lat="43.54109" lon="6.21114">
        <ele>339.3</ele>
        <time>2023-04-12T12:58:14.000Z</time>
      </trkpt>
      <trkpt lat="43.54099" lon="6.2112">
        <ele>337.6</ele>
        <time>2023-04-12T12:58:24.000Z</time>
      </trkpt>
      <trkpt lat="43.54093" lon="6.21129">
        <ele>336.3</ele>
        <time>2023-04-12T12:58:34.000Z</time>
      </trkpt>
      <trkpt lat="43.54085" lon="6.21137">
        <ele>334.8</ele>
        <time>2023-04-12T12:58:44.000Z</time>
      </trkpt>
      <trkpt lat="43.54078" lon="6.21148">
        <ele>333.9</ele>
        <time>2023-04-12T12:58:54.000Z</time>
      </trkpt>
      <trkpt lat="43.54071" lon="6.21157">
        <ele>332.9</ele>
        <time>2023-04-12T12:59:04.000Z</time>
      </trkpt>
      <trkpt lat="43.54065" lon="6.21168">
        <ele>331.7</ele>
        <time>2023-04-12T12:59:14.000Z</time>
      </trkpt>
      <trkpt lat="43.54061" lon="6.21178">
        <ele>329.8</ele>
        <time>2023-04-12T12:59:24.000Z</time>
      </trkpt>
      <trkpt lat="43.54054" lon="6.21188">
        <ele>328</ele>
        <time>2023-04-12T12:59:34.000Z</time>
      </trkpt>
      <trkpt lat="43.54047" lon="6.21199">
        <ele>326.7</ele>
        <time>2023-04-12T12:59:44.000Z</time>
      </trkpt>
      <trkpt lat="43.54041" lon="6.21209">
        <ele>325.7</ele>
        <time>2023-04-12T12:59:54.000Z</time>
      </trkpt>
      <trkpt lat="43.54035" lon="6.21218">
        <ele>323.9</ele>
        <time>2023-04-12T13:00:04.000Z</time>
      </trkpt>
      <trkpt lat="43.54027" lon="6.21228">
        <ele>322.7</ele>
        <time>2023-04-12T13:00:14.000Z</time>
      </trkpt>
      <trkpt lat="43.5402" lon="6.21237">
        <ele>321.4</ele>
        <time>2023-04-12T13:00:24.000Z</time>
      </trkpt>
      <trkpt lat="43.54008" lon="6.2125">
        <ele>320.6</ele>
        <time>2023-04-12T13:00:34.000Z</time>
      </trkpt>
      <trkpt lat="43.54001" lon="6.21259">
        <ele>319.6</ele>
        <time>2023-04-12T13:00:44.000Z</time>
      </trkpt>
      <trkpt lat="43.53993" lon="6.21265">
        <ele>318.8</ele>
        <time>2023-04-12T13:00:54.000Z</time>
      </trkpt>
      <trkpt lat="43.53988" lon="6.21267">
        <ele>317.2</ele>
        <time>2023-04-12T13:01:04.000Z</time>
      </trkpt>
      <trkpt lat="43.53981" lon="6.21273">
        <ele>315.8</ele>
        <time>2023-04-12T13:01:14.000Z</time>
      </trkpt>
      <trkpt lat="43.53974" lon="6.21274">
        <ele>314.7</ele>
        <time>2023-04-12T13:01:24.000Z</time>
      </trkpt>
      <trkpt lat="43.53964" lon="6.21278">
        <ele>313.7</ele>
        <time>2023-04-12T13:01:34.000Z</time>
      </trkpt>
      <trkpt lat="43.53956" lon="6.21274">
        <ele>312.7</ele>
        <time>2023-04-12T13:01:44.000Z</time>
      </trkpt>
      <trkpt lat="43.5395" lon="6.21273">
        <ele>311.5</ele>
        <time>2023-04-12T13:01:54.000Z</time>
      </trkpt>
      <trkpt lat="43.53939" lon="6.21272">
        <ele>310.1</ele>
        <time>2023-04-12T13:02:04.000Z</time>
      </trkpt>
      <trkpt lat="43.53933" lon="6.21276">
        <ele>309.2</ele>
        <time>2023-04-12T13:02:14.000Z</time>
      </trkpt>
      <trkpt lat="43.53923" lon="6.21279">
        <ele>307.6</ele>
        <time>2023-04-12T13:02:24.000Z</time>
      </trkpt>
      <trkpt lat="43.53914" lon="6.21286">
        <ele>306.6</ele>
        <time>2023-04-12T13:02:34.000Z</time>
      </trkpt>
      <trkpt lat="43.53905" lon="6.21295">
        <ele>305.2</ele>
        <time>2023-04-12T13:02:44.000Z</time>
      </trkpt>
      <trkpt lat="43.53893" lon="6.21304">
        <ele>304.5</ele>
        <time>2023-04-12T13:02:54.000Z</time>
      </trkpt>
      <trkpt lat="43.53886" lon="6.2131">
        <ele>303</ele>
        <time>2023-04-12T13:03:04.000Z</time>
      </trkpt>
      <trkpt lat="43.53878" lon="6.21318">
        <ele>301.7</ele>
        <time>2023-04-12T13:03:14.000Z</time>
      </trkpt>
      <trkpt lat="43.53869" lon="6.21328">
        <ele>300.1</ele>
        <time>2023-04-12T13:03:24.000Z</time>
      </trkpt>
      <trkpt lat="43.53866" lon="6.21338">
        <ele>298.8</ele>
        <time>2023-04-12T13:03:34.000Z</time>
      </trkpt>
      <trkpt lat="43.53857" lon="6.21348">
        <ele>297.7</ele>
        <time>2023-04-12T13:03:44.000Z</time>
      </trkpt>
      <trkpt lat="43.53853" lon="6.21354">
        <ele>296.6</ele>
        <time>2023-04-12T13:03:54.000Z</time>
      </trkpt>
      <trkpt lat="43.53852" lon="6.21356">
        <ele>296.3</ele>
        <time>2023-04-12T13:04:04.000Z</time>
      </trkpt>
      <trkpt lat="43.53849" lon="6.21359">
        <ele>296.1</ele>
        <time>2023-04-12T13:04:14.000Z</time>
      </trkpt>
      <trkpt lat="43.53847" lon="6.21363">
        <ele>295.6</ele>
        <time>2023-04-12T13:04:24.000Z</time>
      </trkpt>
      <trkpt lat="43.53846" lon="6.21367">
        <ele>295</ele>
        <time>2023-04-12T13:04:34.000Z</time>
      </trkpt>
      <trkpt lat="43.53844" lon="6.21373">
        <ele>294.5</ele>
        <time>2023-04-12T13:04:44.000Z</time>
      </trkpt>
      <trkpt lat="43.53838" lon="6.21377">
        <ele>294.1</ele>
        <time>2023-04-12T13:04:54.000Z</time>
      </trkpt>
      <trkpt lat="43.53832" lon="6.21378">
        <ele>293.6</ele>
        <time>2023-04-12T13:05:04.000Z</time>
      </trkpt>
      <trkpt lat="43.53825" lon="6.21384">
        <ele>293.2</ele>
        <time>2023-04-12T13:05:14.000Z</time>
      </trkpt>
      <trkpt lat="43.53819" lon="6.21387">
        <ele>292.4</ele>
        <time>2023-04-12T13:05:24.000Z</time>
      </trkpt>
      <trkpt lat="43.5381" lon="6.21394">
        <ele>291.8</ele>
        <time>2023-04-12T13:05:34.000Z</time>
      </trkpt>
      <trkpt lat="43.53803" lon="6.21397">
        <ele>291.1</ele>
        <time>2023-04-12T13:05:44.000Z</time>
      </trkpt>
      <trkpt lat="43.53796" lon="6.21397">
        <ele>291</ele>
        <time>2023-04-12T13:05:54.000Z</time>
      </trkpt>
      <trkpt lat="43.53789" lon="6.21402">
        <ele>290.9</ele>
        <time>2023-04-12T13:06:04.000Z</time>
      </trkpt>
      <trkpt lat="43.53786" lon="6.21408">
        <ele>290.9</ele>
        <time>2023-04-12T13:06:14.000Z</time>
      </trkpt>
      <trkpt lat="43.53783" lon="6.2141">
        <ele>290.9</ele>
        <time>2023-04-12T13:06:24.000Z</time>
      </trkpt>
      <trkpt lat="43.53779" lon="6.21411">
        <ele>290.9</ele>
        <time>2023-04-12T13:06:34.000Z</time>
      </trkpt>
      <trkpt lat="43.53777" lon="6.21421">
        <ele>291.1</ele>
        <time>2023-04-12T13:06:44.000Z</time>
      </trkpt>
      <trkpt lat="43.53774" lon="6.21428">
        <ele>290.5</ele>
        <time>2023-04-12T13:06:54.000Z</time>
      </trkpt>
      <trkpt lat="43.53774" lon="6.21434">
        <ele>291.1</ele>
        <time>2023-04-12T13:07:04.000Z</time>
      </trkpt>
      <trkpt lat="43.53768" lon="6.2144">
        <ele>291.4</ele>
        <time>2023-04-12T13:07:14.000Z</time>
      </trkpt>
      <trkpt lat="43.5376" lon="6.2145">
        <ele>291.9</ele>
        <time>2023-04-12T13:07:24.000Z</time>
      </trkpt>
      <trkpt lat="43.53756" lon="6.2146">
        <ele>292</ele>
        <time>2023-04-12T13:07:34.000Z</time>
      </trkpt>
      <trkpt lat="43.53753" lon="6.21475">
        <ele>292.1</ele>
        <time>2023-04-12T13:07:44.000Z</time>
      </trkpt>
      <trkpt lat="43.53753" lon="6.2149">
        <ele>292.7</ele>
        <time>2023-04-12T13:07:54.000Z</time>
      </trkpt>
      <trkpt lat="43.53757" lon="6.21505">
        <ele>294.1</ele>
        <time>2023-04-12T13:08:04.000Z</time>
      </trkpt>
      <trkpt lat="43.53759" lon="6.2152">
        <ele>294.7</ele>
        <time>2023-04-12T13:08:14.000Z</time>
      </trkpt>
      <trkpt lat="43.53757" lon="6.21534">
        <ele>295.2</ele>
        <time>2023-04-12T13:08:24.000Z</time>
      </trkpt>
      <trkpt lat="43.53757" lon="6.21547">
        <ele>295.6</ele>
        <time>2023-04-12T13:08:34.000Z</time>
      </trkpt>
      <trkpt lat="43.53755" lon="6.21557">
        <ele>295.4</ele>
        <time>2023-04-12T13:08:44.000Z</time>
      </trkpt>
      <trkpt lat="43.5375" lon="6.21568">
        <ele>294.5</ele>
        <time>2023-04-12T13:08:54.000Z</time>
      </trkpt>
      <trkpt lat="43.53746" lon="6.2158">
        <ele>295.5</ele>
        <time>2023-04-12T13:09:04.000Z</time>
      </trkpt>
      <trkpt lat="43.53742" lon="6.21593">
        <ele>295.6</ele>
        <time>2023-04-12T13:09:14.000Z</time>
      </trkpt>
      <trkpt lat="43.53738" lon="6.21608">
        <ele>295.5</ele>
        <time>2023-04-12T13:09:24.000Z</time>
      </trkpt>
      <trkpt lat="43.53735" lon="6.21619">
        <ele>295</ele>
        <time>2023-04-12T13:09:34.000Z</time>
      </trkpt>
      <trkpt lat="43.53734" lon="6.21634">
        <ele>295</ele>
        <time>2023-04-12T13:09:44.000Z</time>
      </trkpt>
      <trkpt lat="43.53731" lon="6.21649">
        <ele>295.4</ele>
        <time>2023-04-12T13:09:54.000Z</time>
      </trkpt>
      <trkpt lat="43.53726" lon="6.21661">
        <ele>295.9</ele>
        <time>2023-04-12T13:10:04.000Z</time>
      </trkpt>
      <trkpt lat="43.53723" lon="6.21675">
        <ele>296.7</ele>
        <time>2023-04-12T13:10:14.000Z</time>
      </trkpt>
      <trkpt lat="43.53719" lon="6.21689">
        <ele>297.1</ele>
        <time>2023-04-12T13:10:24.000Z</time>
      </trkpt>
      <trkpt lat="43.5372" lon="6.21704">
        <ele>297.4</ele>
        <time>2023-04-12T13:10:34.000Z</time>
      </trkpt>
      <trkpt lat="43.53727" lon="6.2172">
        <ele>298.8</ele>
        <time>2023-04-12T13:10:44.000Z</time>
      </trkpt>
      <trkpt lat="43.53728" lon="6.21733">
        <ele>299.8</ele>
        <time>2023-04-12T13:10:54.000Z</time>
      </trkpt>
      <trkpt lat="43.53729" lon="6.21746">
        <ele>300.8</ele>
        <time>2023-04-12T13:11:04.000Z</time>
      </trkpt>
      <trkpt lat="43.53726" lon="6.21751">
        <ele>301.8</ele>
        <time>2023-04-12T13:11:14.000Z</time>
      </trkpt>
      <trkpt lat="43.53723" lon="6.2176">
        <ele>302.8</ele>
        <time>2023-04-12T13:11:24.000Z</time>
      </trkpt>
      <trkpt lat="43.53716" lon="6.21766">
        <ele>303.6</ele>
        <time>2023-04-12T13:11:34.000Z</time>
      </trkpt>
      <trkpt lat="43.53713" lon="6.21771">
        <ele>303.3</ele>
        <time>2023-04-12T13:11:44.000Z</time>
      </trkpt>
      <trkpt lat="43.53714" lon="6.21778">
        <ele>305.4</ele>
        <time>2023-04-12T13:11:54.000Z</time>
      </trkpt>
      <trkpt lat="43.53713" lon="6.2178">
        <ele>305.7</ele>
        <time>2023-04-12T13:12:04.000Z</time>
      </trkpt>
      <trkpt lat="43.53713" lon="6.2178">
        <ele>305.8</ele>
        <time>2023-04-12T13:12:14.000Z</time>
      </trkpt>
      <trkpt lat="43.53713" lon="6.21778">
        <ele>305.8</ele>
        <time>2023-04-12T13:12:24.000Z</time>
      </trkpt>
      <trkpt lat="43.53713" lon="6.21778">
        <ele>305.9</ele>
        <time>2023-04-12T13:12:34.000Z</time>
      </trkpt>
      <trkpt lat="43.53715" lon="6.21779">
        <ele>305.9</ele>
        <time>2023-04-12T13:12:44.000Z</time>
      </trkpt>
      <trkpt lat="43.53716" lon="6.21779">
        <ele>305.9</ele>
        <time>2023-04-12T13:12:54.000Z</time>
      </trkpt>
      <trkpt lat="43.53715" lon="6.2178">
        <ele>305.9</ele>
        <time>2023-04-12T13:13:04.000Z</time>
      </trkpt>
      <trkpt lat="43.53715" lon="6.2178">
        <ele>306</ele>
        <time>2023-04-12T13:13:14.000Z</time>
      </trkpt>
      <trkpt lat="43.53714" lon="6.2178">
        <ele>306.2</ele>
        <time>2023-04-12T13:13:24.000Z</time>
      </trkpt>
      <trkpt lat="43.53713" lon="6.21779">
        <ele>306.4</ele>
        <time>2023-04-12T13:13:34.000Z</time>
      </trkpt>
      <trkpt lat="43.53712" lon="6.2178">
        <ele>306.7</ele>
        <time>2023-04-12T13:13:44.000Z</time>
      </trkpt>
      <trkpt lat="43.53712" lon="6.2178">
        <ele>306.8</ele>
        <time>2023-04-12T13:13:54.000Z</time>
      </trkpt>
      <trkpt lat="43.53715" lon="6.21781">
        <ele>306.8</ele>
        <time>2023-04-12T13:14:04.000Z</time>
      </trkpt>
      <trkpt lat="43.53717" lon="6.21781">
        <ele>306.9</ele>
        <time>2023-04-12T13:14:14.000Z</time>
      </trkpt>
      <trkpt lat="43.53716" lon="6.2178">
        <ele>306.9</ele>
        <time>2023-04-12T13:14:24.000Z</time>
      </trkpt>
      <trkpt lat="43.53716" lon="6.21782">
        <ele>307.9</ele>
        <time>2023-04-12T13:14:34.000Z</time>
      </trkpt>
      <trkpt lat="43.53718" lon="6.21786">
        <ele>308</ele>
        <time>2023-04-12T13:14:44.000Z</time>
      </trkpt>
      <trkpt lat="43.5372" lon="6.21786">
        <ele>308.2</ele>
        <time>2023-04-12T13:14:54.000Z</time>
      </trkpt>
      <trkpt lat="43.53721" lon="6.21788">
        <ele>308.4</ele>
        <time>2023-04-12T13:15:04.000Z</time>
      </trkpt>
      <trkpt lat="43.53722" lon="6.21788">
        <ele>308.4</ele>
        <time>2023-04-12T13:15:14.000Z</time>
      </trkpt>
      <trkpt lat="43.53722" lon="6.21787">
        <ele>308.6</ele>
        <time>2023-04-12T13:15:24.000Z</time>
      </trkpt>
      <trkpt lat="43.5372" lon="6.21787">
        <ele>308.6</ele>
        <time>2023-04-12T13:15:34.000Z</time>
      </trkpt>
      <trkpt lat="43.53722" lon="6.21789">
        <ele>308.3</ele>
        <time>2023-04-12T13:15:44.000Z</time>
      </trkpt>
      <trkpt lat="43.53721" lon="6.21794">
        <ele>307.2</ele>
        <time>2023-04-12T13:15:54.000Z</time>
      </trkpt>
      <trkpt lat="43.53721" lon="6.21794">
        <ele>309.7</ele>
        <time>2023-04-12T13:16:04.000Z</time>
      </trkpt>
      <trkpt lat="43.53722" lon="6.21794">
        <ele>309.9</ele>
        <time>2023-04-12T13:16:14.000Z</time>
      </trkpt>
      <trkpt lat="43.53724" lon="6.21803">
        <ele>309.7</ele>
        <time>2023-04-12T13:16:24.000Z</time>
      </trkpt>
      <trkpt lat="43.53718" lon="6.21816">
        <ele>309.7</ele>
        <time>2023-04-12T13:16:34.000Z</time>
      </trkpt>
      <trkpt lat="43.53711" lon="6.21822">
        <ele>310</ele>
        <time>2023-04-12T13:16:44.000Z</time>
      </trkpt>
      <trkpt lat="43.53708" lon="6.21825">
        <ele>310.9</ele>
        <time>2023-04-12T13:16:54.000Z</time>
      </trkpt>
      <trkpt lat="43.53705" lon="6.21821">
        <ele>311.8</ele>
        <time>2023-04-12T13:17:04.000Z</time>
      </trkpt>
      <trkpt lat="43.53706" lon="6.2182">
        <ele>312.5</ele>
        <time>2023-04-12T13:17:14.000Z</time>
      </trkpt>
      <trkpt lat="43.53705" lon="6.2182">
        <ele>312.1</ele>
        <time>2023-04-12T13:17:24.000Z</time>
      </trkpt>
      <trkpt lat="43.53702" lon="6.21817">
        <ele>312.7</ele>
        <time>2023-04-12T13:17:34.000Z</time>
      </trkpt>
      <trkpt lat="43.537" lon="6.21819">
        <ele>312.7</ele>
        <time>2023-04-12T13:17:44.000Z</time>
      </trkpt>
      <trkpt lat="43.537" lon="6.2182">
        <ele>312.6</ele>
        <time>2023-04-12T13:17:54.000Z</time>
      </trkpt>
      <trkpt lat="43.53701" lon="6.21822">
        <ele>313.1</ele>
        <time>2023-04-12T13:18:04.000Z</time>
      </trkpt>
      <trkpt lat="43.53706" lon="6.21828">
        <ele>312.7</ele>
        <time>2023-04-12T13:18:14.000Z</time>
      </trkpt>
      <trkpt lat="43.53712" lon="6.21833">
        <ele>312.2</ele>
        <time>2023-04-12T13:18:24.000Z</time>
      </trkpt>
      <trkpt lat="43.53713" lon="6.21836">
        <ele>312</ele>
        <time>2023-04-12T13:18:34.000Z</time>
      </trkpt>
      <trkpt lat="43.53717" lon="6.2184">
        <ele>312.1</ele>
        <time>2023-04-12T13:18:44.000Z</time>
      </trkpt>
      <trkpt lat="43.53719" lon="6.21843">
        <ele>311.9</ele>
        <time>2023-04-12T13:18:54.000Z</time>
      </trkpt>
      <trkpt lat="43.53724" lon="6.21846">
        <ele>311.6</ele>
        <time>2023-04-12T13:19:04.000Z</time>
      </trkpt>
      <trkpt lat="43.53726" lon="6.21852">
        <ele>311.3</ele>
        <time>2023-04-12T13:19:14.000Z</time>
      </trkpt>
      <trkpt lat="43.53729" lon="6.21857">
        <ele>311.1</ele>
        <time>2023-04-12T13:19:24.000Z</time>
      </trkpt>
      <trkpt lat="43.53731" lon="6.2186">
        <ele>310.9</ele>
        <time>2023-04-12T13:19:34.000Z</time>
      </trkpt>
      <trkpt lat="43.5373" lon="6.2186">
        <ele>311.4</ele>
        <time>2023-04-12T13:19:44.000Z</time>
      </trkpt>
      <trkpt lat="43.53731" lon="6.21861">
        <ele>311.5</ele>
        <time>2023-04-12T13:19:54.000Z</time>
      </trkpt>
      <trkpt lat="43.5373" lon="6.21866">
        <ele>312.2</ele>
        <time>2023-04-12T13:20:04.000Z</time>
      </trkpt>
      <trkpt lat="43.53731" lon="6.21866">
        <ele>312</ele>
        <time>2023-04-12T13:20:14.000Z</time>
      </trkpt>
      <trkpt lat="43.53732" lon="6.21869">
        <ele>311.4</ele>
        <time>2023-04-12T13:20:24.000Z</time>
      </trkpt>
      <trkpt lat="43.53736" lon="6.21875">
        <ele>311.5</ele>
        <time>2023-04-12T13:20:34.000Z</time>
      </trkpt>
      <trkpt lat="43.53744" lon="6.21877">
        <ele>310.8</ele>
        <time>2023-04-12T13:20:44.000Z</time>
      </trkpt>
      <trkpt lat="43.53751" lon="6.21875">
        <ele>310.9</ele>
        <time>2023-04-12T13:20:54.000Z</time>
      </trkpt>
      <trkpt lat="43.53758" lon="6.21872">
        <ele>311.1</ele>
        <time>2023-04-12T13:21:04.000Z</time>
      </trkpt>
      <trkpt lat="43.53759" lon="6.21868">
        <ele>311.3</ele>
        <time>2023-04-12T13:21:14.000Z</time>
      </trkpt>
      <trkpt lat="43.5376" lon="6.21867">
        <ele>311.5</ele>
        <time>2023-04-12T13:21:24.000Z</time>
      </trkpt>
      <trkpt lat="43.5376" lon="6.21867">
        <ele>311.3</ele>
        <time>2023-04-12T13:21:34.000Z</time>
      </trkpt>
      <trkpt lat="43.5376" lon="6.21867">
        <ele>311.3</ele>
        <time>2023-04-12T13:21:44.000Z</time>
      </trkpt>
      <trkpt lat="43.53762" lon="6.21865">
        <ele>311.6</ele>
        <time>2023-04-12T13:21:54.000Z</time>
      </trkpt>
      <trkpt lat="43.53762" lon="6.21865">
        <ele>311.6</ele>
        <time>2023-04-12T13:22:04.000Z</time>
      </trkpt>
      <trkpt lat="43.53762" lon="6.21863">
        <ele>311.7</ele>
        <time>2023-04-12T13:22:14.000Z</time>
      </trkpt>
      <trkpt lat="43.53762" lon="6.21859">
        <ele>312.2</ele>
        <time>2023-04-12T13:22:24.000Z</time>
      </trkpt>
      <trkpt lat="43.53759" lon="6.21858">
        <ele>312.2</ele>
        <time>2023-04-12T13:22:34.000Z</time>
      </trkpt>
      <trkpt lat="43.53759" lon="6.21858">
        <ele>312.7</ele>
        <time>2023-04-12T13:22:44.000Z</time>
      </trkpt>
      <trkpt lat="43.53757" lon="6.21858">
        <ele>312.8</ele>
        <time>2023-04-12T13:22:54.000Z</time>
      </trkpt>
      <trkpt lat="43.53761" lon="6.21853">
        <ele>313</ele>
        <time>2023-04-12T13:23:04.000Z</time>
      </trkpt>
      <trkpt lat="43.5376" lon="6.21832">
        <ele>315.1</ele>
        <time>2023-04-12T13:23:14.000Z</time>
      </trkpt>
      <trkpt lat="43.5376" lon="6.21814">
        <ele>315.7</ele>
        <time>2023-04-12T13:23:24.000Z</time>
      </trkpt>
      <trkpt lat="43.53759" lon="6.218">
        <ele>316.6</ele>
        <time>2023-04-12T13:23:34.000Z</time>
      </trkpt>
      <trkpt lat="43.53759" lon="6.2179">
        <ele>316.5</ele>
        <time>2023-04-12T13:23:44.000Z</time>
      </trkpt>
      <trkpt lat="43.53761" lon="6.21782">
        <ele>316.9</ele>
        <time>2023-04-12T13:23:54.000Z</time>
      </trkpt>
      <trkpt lat="43.53763" lon="6.2178">
        <ele>317.6</ele>
        <time>2023-04-12T13:24:04.000Z</time>
      </trkpt>
      <trkpt lat="43.53765" lon="6.21775">
        <ele>317.3</ele>
        <time>2023-04-12T13:24:14.000Z</time>
      </trkpt>
      <trkpt lat="43.5377" lon="6.21769">
        <ele>319.5</ele>
        <time>2023-04-12T13:24:24.000Z</time>
      </trkpt>
      <trkpt lat="43.53774" lon="6.21759">
        <ele>321.5</ele>
        <time>2023-04-12T13:24:34.000Z</time>
      </trkpt>
      <trkpt lat="43.53777" lon="6.21749">
        <ele>322.2</ele>
        <time>2023-04-12T13:24:44.000Z</time>
      </trkpt>
      <trkpt lat="43.53778" lon="6.2174">
        <ele>324</ele>
        <time>2023-04-12T13:24:54.000Z</time>
      </trkpt>
      <trkpt lat="43.53777" lon="6.21735">
        <ele>324.7</ele>
        <time>2023-04-12T13:25:04.000Z</time>
      </trkpt>
      <trkpt lat="43.53776" lon="6.21737">
        <ele>324.8</ele>
        <time>2023-04-12T13:25:14.000Z</time>
      </trkpt>
      <trkpt lat="43.53779" lon="6.21737">
        <ele>325</ele>
        <time>2023-04-12T13:25:24.000Z</time>
      </trkpt>
      <trkpt lat="43.53783" lon="6.21734">
        <ele>326.6</ele>
        <time>2023-04-12T13:25:34.000Z</time>
      </trkpt>
      <trkpt lat="43.53782" lon="6.21739">
        <ele>327.3</ele>
        <time>2023-04-12T13:25:44.000Z</time>
      </trkpt>
      <trkpt lat="43.53784" lon="6.21734">
        <ele>327</ele>
        <time>2023-04-12T13:25:54.000Z</time>
      </trkpt>
      <trkpt lat="43.53784" lon="6.21733">
        <ele>327.3</ele>
        <time>2023-04-12T13:26:04.000Z</time>
      </trkpt>
      <trkpt lat="43.53786" lon="6.2173">
        <ele>327.5</ele>
        <time>2023-04-12T13:26:14.000Z</time>
      </trkpt>
      <trkpt lat="43.53786" lon="6.21728">
        <ele>327.7</ele>
        <time>2023-04-12T13:26:24.000Z</time>
      </trkpt>
      <trkpt lat="43.53784" lon="6.21727">
        <ele>327.3</ele>
        <time>2023-04-12T13:26:34.000Z</time>
      </trkpt>
      <trkpt lat="43.53785" lon="6.21725">
        <ele>328.1</ele>
        <time>2023-04-12T13:26:44.000Z</time>
      </trkpt>
      <trkpt lat="43.53788" lon="6.21724">
        <ele>328.3</ele>
        <time>2023-04-12T13:26:54.000Z</time>
      </trkpt>
      <trkpt lat="43.5379" lon="6.21722">
        <ele>328.8</ele>
        <time>2023-04-12T13:27:04.000Z</time>
      </trkpt>
      <trkpt lat="43.53794" lon="6.2172">
        <ele>328.8</ele>
        <time>2023-04-12T13:27:14.000Z</time>
      </trkpt>
      <trkpt lat="43.53799" lon="6.21721">
        <ele>331</ele>
        <time>2023-04-12T13:27:24.000Z</time>
      </trkpt>
      <trkpt lat="43.53801" lon="6.21722">
        <ele>331</ele>
        <time>2023-04-12T13:27:34.000Z</time>
      </trkpt>
      <trkpt lat="43.53805" lon="6.21724">
        <ele>331.8</ele>
        <time>2023-04-12T13:27:44.000Z</time>
      </trkpt>
      <trkpt lat="43.5381" lon="6.21729">
        <ele>334</ele>
        <time>2023-04-12T13:27:54.000Z</time>
      </trkpt>
      <trkpt lat="43.53816" lon="6.21731">
        <ele>335.7</ele>
        <time>2023-04-12T13:28:04.000Z</time>
      </trkpt>
      <trkpt lat="43.53824" lon="6.2173">
        <ele>337.7</ele>
        <time>2023-04-12T13:28:14.000Z</time>
      </trkpt>
      <trkpt lat="43.53829" lon="6.21726">
        <ele>338.5</ele>
        <time>2023-04-12T13:28:24.000Z</time>
      </trkpt>
      <trkpt lat="43.53835" lon="6.21726">
        <ele>339.9</ele>
        <time>2023-04-12T13:28:34.000Z</time>
      </trkpt>
      <trkpt lat="43.53839" lon="6.21722">
        <ele>342.6</ele>
        <time>2023-04-12T13:28:44.000Z</time>
      </trkpt>
      <trkpt lat="43.53844" lon="6.2172">
        <ele>343.1</ele>
        <time>2023-04-12T13:28:54.000Z</time>
      </trkpt>
      <trkpt lat="43.53846" lon="6.21722">
        <ele>342.1</ele>
        <time>2023-04-12T13:29:04.000Z</time>
      </trkpt>
      <trkpt lat="43.5385" lon="6.21726">
        <ele>345.2</ele>
        <time>2023-04-12T13:29:14.000Z</time>
      </trkpt>
      <trkpt lat="43.53855" lon="6.2173">
        <ele>346.2</ele>
        <time>2023-04-12T13:29:24.000Z</time>
      </trkpt>
      <trkpt lat="43.53857" lon="6.21731">
        <ele>347.5</ele>
        <time>2023-04-12T13:29:34.000Z</time>
      </trkpt>
      <trkpt lat="43.5386" lon="6.21734">
        <ele>349</ele>
        <time>2023-04-12T13:29:44.000Z</time>
      </trkpt>
      <trkpt lat="43.53864" lon="6.21733">
        <ele>349.9</ele>
        <time>2023-04-12T13:29:54.000Z</time>
      </trkpt>
      <trkpt lat="43.53869" lon="6.21731">
        <ele>351</ele>
        <time>2023-04-12T13:30:04.000Z</time>
      </trkpt>
      <trkpt lat="43.53874" lon="6.21727">
        <ele>353.8</ele>
        <time>2023-04-12T13:30:14.000Z</time>
      </trkpt>
      <trkpt lat="43.53879" lon="6.21723">
        <ele>355.2</ele>
        <time>2023-04-12T13:30:24.000Z</time>
      </trkpt>
      <trkpt lat="43.53885" lon="6.21716">
        <ele>356</ele>
        <time>2023-04-12T13:30:34.000Z</time>
      </trkpt>
      <trkpt lat="43.5389" lon="6.21715">
        <ele>357.2</ele>
        <time>2023-04-12T13:30:44.000Z</time>
      </trkpt>
      <trkpt lat="43.53896" lon="6.21712">
        <ele>359.4</ele>
        <time>2023-04-12T13:30:54.000Z</time>
      </trkpt>
      <trkpt lat="43.53902" lon="6.21702">
        <ele>359.8</ele>
        <time>2023-04-12T13:31:04.000Z</time>
      </trkpt>
      <trkpt lat="43.53908" lon="6.21703">
        <ele>360.1</ele>
        <time>2023-04-12T13:31:14.000Z</time>
      </trkpt>
      <trkpt lat="43.53913" lon="6.21714">
        <ele>360.5</ele>
        <time>2023-04-12T13:31:24.000Z</time>
      </trkpt>
      <trkpt lat="43.53922" lon="6.2171">
        <ele>360.7</ele>
        <time>2023-04-12T13:31:34.000Z</time>
      </trkpt>
      <trkpt lat="43.53931" lon="6.21708">
        <ele>361.2</ele>
        <time>2023-04-12T13:31:44.000Z</time>
      </trkpt>
      <trkpt lat="43.53934" lon="6.21698">
        <ele>361.2</ele>
        <time>2023-04-12T13:31:54.000Z</time>
      </trkpt>
      <trkpt lat="43.53935" lon="6.21696">
        <ele>361.6</ele>
        <time>2023-04-12T13:32:04.000Z</time>
      </trkpt>
      <trkpt lat="43.53937" lon="6.21692">
        <ele>361.3</ele>
        <time>2023-04-12T13:32:14.000Z</time>
      </trkpt>
      <trkpt lat="43.53943" lon="6.21694">
        <ele>361.4</ele>
        <time>2023-04-12T13:32:24.000Z</time>
      </trkpt>
      <trkpt lat="43.53945" lon="6.21703">
        <ele>361.6</ele>
        <time>2023-04-12T13:32:34.000Z</time>
      </trkpt>
      <trkpt lat="43.53945" lon="6.21712">
        <ele>361.9</ele>
        <time>2023-04-12T13:32:44.000Z</time>
      </trkpt>
      <trkpt lat="43.53947" lon="6.21723">
        <ele>361.8</ele>
        <time>2023-04-12T13:32:54.000Z</time>
      </trkpt>
      <trkpt lat="43.53948" lon="6.21735">
        <ele>361.9</ele>
        <time>2023-04-12T13:33:04.000Z</time>
      </trkpt>
      <trkpt lat="43.53956" lon="6.21747">
        <ele>362.1</ele>
        <time>2023-04-12T13:33:14.000Z</time>
      </trkpt>
      <trkpt lat="43.53962" lon="6.21758">
        <ele>362.4</ele>
        <time>2023-04-12T13:33:24.000Z</time>
      </trkpt>
      <trkpt lat="43.53967" lon="6.21769">
        <ele>362.4</ele>
        <time>2023-04-12T13:33:34.000Z</time>
      </trkpt>
      <trkpt lat="43.53972" lon="6.21783">
        <ele>362.4</ele>
        <time>2023-04-12T13:33:44.000Z</time>
      </trkpt>
      <trkpt lat="43.5398" lon="6.21796">
        <ele>363.4</ele>
        <time>2023-04-12T13:33:54.000Z</time>
      </trkpt>
      <trkpt lat="43.53988" lon="6.21807">
        <ele>363.5</ele>
        <time>2023-04-12T13:34:04.000Z</time>
      </trkpt>
      <trkpt lat="43.53997" lon="6.21816">
        <ele>363.5</ele>
        <time>2023-04-12T13:34:14.000Z</time>
      </trkpt>
      <trkpt lat="43.54006" lon="6.21818">
        <ele>363.9</ele>
        <time>2023-04-12T13:34:24.000Z</time>
      </trkpt>
      <trkpt lat="43.54014" lon="6.2182">
        <ele>364.3</ele>
        <time>2023-04-12T13:34:34.000Z</time>
      </trkpt>
      <trkpt lat="43.54021" lon="6.21823">
        <ele>364.4</ele>
        <time>2023-04-12T13:34:44.000Z</time>
      </trkpt>
      <trkpt lat="43.5403" lon="6.21827">
        <ele>365.7</ele>
        <time>2023-04-12T13:34:54.000Z</time>
      </trkpt>
      <trkpt lat="43.54039" lon="6.21831">
        <ele>366.6</ele>
        <time>2023-04-12T13:35:04.000Z</time>
      </trkpt>
      <trkpt lat="43.5405" lon="6.21839">
        <ele>366.8</ele>
        <time>2023-04-12T13:35:14.000Z</time>
      </trkpt>
      <trkpt lat="43.54059" lon="6.21844">
        <ele>366.9</ele>
        <time>2023-04-12T13:35:24.000Z</time>
      </trkpt>
      <trkpt lat="43.54065" lon="6.21852">
        <ele>367.3</ele>
        <time>2023-04-12T13:35:34.000Z</time>
      </trkpt>
      <trkpt lat="43.54073" lon="6.21858">
        <ele>366.9</ele>
        <time>2023-04-12T13:35:44.000Z</time>
      </trkpt>
      <trkpt lat="43.54081" lon="6.21863">
        <ele>367.8</ele>
        <time>2023-04-12T13:35:54.000Z</time>
      </trkpt>
      <trkpt lat="43.54086" lon="6.21868">
        <ele>368</ele>
        <time>2023-04-12T13:36:04.000Z</time>
      </trkpt>
      <trkpt lat="43.54093" lon="6.21874">
        <ele>368.3</ele>
        <time>2023-04-12T13:36:14.000Z</time>
      </trkpt>
      <trkpt lat="43.54098" lon="6.21877">
        <ele>368.4</ele>
        <time>2023-04-12T13:36:24.000Z</time>
      </trkpt>
      <trkpt lat="43.54106" lon="6.21877">
        <ele>368.6</ele>
        <time>2023-04-12T13:36:34.000Z</time>
      </trkpt>
      <trkpt lat="43.54114" lon="6.21874">
        <ele>369.1</ele>
        <time>2023-04-12T13:36:44.000Z</time>
      </trkpt>
      <trkpt lat="43.54121" lon="6.21867">
        <ele>369.2</ele>
        <time>2023-04-12T13:36:54.000Z</time>
      </trkpt>
      <trkpt lat="43.54126" lon="6.21863">
        <ele>370.3</ele>
        <time>2023-04-12T13:37:04.000Z</time>
      </trkpt>
      <trkpt lat="43.54129" lon="6.2186">
        <ele>370.6</ele>
        <time>2023-04-12T13:37:14.000Z</time>
      </trkpt>
      <trkpt lat="43.54138" lon="6.21863">
        <ele>370.8</ele>
        <time>2023-04-12T13:37:24.000Z</time>
      </trkpt>
      <trkpt lat="43.54149" lon="6.21868">
        <ele>370.6</ele>
        <time>2023-04-12T13:37:34.000Z</time>
      </trkpt>
      <trkpt lat="43.54159" lon="6.21873">
        <ele>370.2</ele>
        <time>2023-04-12T13:37:44.000Z</time>
      </trkpt>
      <trkpt lat="43.54168" lon="6.21876">
        <ele>370.3</ele>
        <time>2023-04-12T13:37:54.000Z</time>
      </trkpt>
      <trkpt lat="43.54177" lon="6.21878">
        <ele>371.6</ele>
        <time>2023-04-12T13:38:04.000Z</time>
      </trkpt>
      <trkpt lat="43.54184" lon="6.21879">
        <ele>373.3</ele>
        <time>2023-04-12T13:38:14.000Z</time>
      </trkpt>
      <trkpt lat="43.54192" lon="6.21879">
        <ele>374.2</ele>
        <time>2023-04-12T13:38:24.000Z</time>
      </trkpt>
      <trkpt lat="43.54202" lon="6.2188">
        <ele>375.5</ele>
        <time>2023-04-12T13:38:34.000Z</time>
      </trkpt>
      <trkpt lat="43.54211" lon="6.21884">
        <ele>376</ele>
        <time>2023-04-12T13:38:44.000Z</time>
      </trkpt>
      <trkpt lat="43.5422" lon="6.21886">
        <ele>376.6</ele>
        <time>2023-04-12T13:38:54.000Z</time>
      </trkpt>
      <trkpt lat="43.54229" lon="6.21889">
        <ele>378.1</ele>
        <time>2023-04-12T13:39:04.000Z</time>
      </trkpt>
      <trkpt lat="43.54235" lon="6.2189">
        <ele>379.9</ele>
        <time>2023-04-12T13:39:14.000Z</time>
      </trkpt>
      <trkpt lat="43.54241" lon="6.21889">
        <ele>380.4</ele>
        <time>2023-04-12T13:39:24.000Z</time>
      </trkpt>
      <trkpt lat="43.54243" lon="6.21886">
        <ele>380.5</ele>
        <time>2023-04-12T13:39:34.000Z</time>
      </trkpt>
      <trkpt lat="43.54244" lon="6.21884">
        <ele>380.6</ele>
        <time>2023-04-12T13:39:44.000Z</time>
      </trkpt>
      <trkpt lat="43.54244" lon="6.21883">
        <ele>380.5</ele>
        <time>2023-04-12T13:39:54.000Z</time>
      </trkpt>
      <trkpt lat="43.54244" lon="6.21883">
        <ele>380.6</ele>
        <time>2023-04-12T13:40:04.000Z</time>
      </trkpt>
      <trkpt lat="43.54244" lon="6.21884">
        <ele>380.8</ele>
        <time>2023-04-12T13:40:14.000Z</time>
      </trkpt>
      <trkpt lat="43.54244" lon="6.21884">
        <ele>380.9</ele>
        <time>2023-04-12T13:40:24.000Z</time>
      </trkpt>
      <trkpt lat="43.54244" lon="6.21884">
        <ele>381</ele>
        <time>2023-04-12T13:40:34.000Z</time>
      </trkpt>
      <trkpt lat="43.54243" lon="6.21883">
        <ele>381.2</ele>
        <time>2023-04-12T13:40:44.000Z</time>
      </trkpt>
      <trkpt lat="43.54243" lon="6.21883">
        <ele>381.4</ele>
        <time>2023-04-12T13:40:54.000Z</time>
      </trkpt>
      <trkpt lat="43.54242" lon="6.21883">
        <ele>381.7</ele>
        <time>2023-04-12T13:41:04.000Z</time>
      </trkpt>
      <trkpt lat="43.54242" lon="6.21881">
        <ele>381.7</ele>
        <time>2023-04-12T13:41:14.000Z</time>
      </trkpt>
      <trkpt lat="43.54245" lon="6.21881">
        <ele>381.9</ele>
        <time>2023-04-12T13:41:24.000Z</time>
      </trkpt>
      <trkpt lat="43.54245" lon="6.21881">
        <ele>382.3</ele>
        <time>2023-04-12T13:41:34.000Z</time>
      </trkpt>
      <trkpt lat="43.54246" lon="6.21883">
        <ele>382.7</ele>
        <time>2023-04-12T13:41:44.000Z</time>
      </trkpt>
      <trkpt lat="43.54248" lon="6.21886">
        <ele>383</ele>
        <time>2023-04-12T13:41:54.000Z</time>
      </trkpt>
      <trkpt lat="43.54248" lon="6.21887">
        <ele>382.6</ele>
        <time>2023-04-12T13:42:04.000Z</time>
      </trkpt>
      <trkpt lat="43.54248" lon="6.21887">
        <ele>382.9</ele>
        <time>2023-04-12T13:42:14.000Z</time>
      </trkpt>
      <trkpt lat="43.54248" lon="6.21887">
        <ele>382.9</ele>
        <time>2023-04-12T13:42:24.000Z</time>
      </trkpt>
      <trkpt lat="43.54248" lon="6.21887">
        <ele>383</ele>
        <time>2023-04-12T13:42:34.000Z</time>
      </trkpt>
      <trkpt lat="43.54247" lon="6.21887">
        <ele>383</ele>
        <time>2023-04-12T13:42:44.000Z</time>
      </trkpt>
      <trkpt lat="43.5425" lon="6.21889">
        <ele>383.1</ele>
        <time>2023-04-12T13:42:54.000Z</time>
      </trkpt>
      <trkpt lat="43.54257" lon="6.21894">
        <ele>383.9</ele>
        <time>2023-04-12T13:43:04.000Z</time>
      </trkpt>
      <trkpt lat="43.54265" lon="6.21899">
        <ele>384.4</ele>
        <time>2023-04-12T13:43:14.000Z</time>
      </trkpt>
      <trkpt lat="43.54274" lon="6.21905">
        <ele>385</ele>
        <time>2023-04-12T13:43:24.000Z</time>
      </trkpt>
      <trkpt lat="43.54283" lon="6.2191">
        <ele>385.9</ele>
        <time>2023-04-12T13:43:34.000Z</time>
      </trkpt>
      <trkpt lat="43.54293" lon="6.21917">
        <ele>386.6</ele>
        <time>2023-04-12T13:43:44.000Z</time>
      </trkpt>
      <trkpt lat="43.54302" lon="6.21925">
        <ele>386.9</ele>
        <time>2023-04-12T13:43:54.000Z</time>
      </trkpt>
      <trkpt lat="43.5431" lon="6.21934">
        <ele>387.4</ele>
        <time>2023-04-12T13:44:04.000Z</time>
      </trkpt>
      <trkpt lat="43.54312" lon="6.21937">
        <ele>387.5</ele>
        <time>2023-04-12T13:44:14.000Z</time>
      </trkpt>
      <trkpt lat="43.54309" lon="6.21947">
        <ele>387.4</ele>
        <time>2023-04-12T13:44:24.000Z</time>
      </trkpt>
      <trkpt lat="43.54306" lon="6.21958">
        <ele>387</ele>
        <time>2023-04-12T13:44:34.000Z</time>
      </trkpt>
      <trkpt lat="43.54299" lon="6.21969">
        <ele>386.8</ele>
        <time>2023-04-12T13:44:44.000Z</time>
      </trkpt>
      <trkpt lat="43.54293" lon="6.21983">
        <ele>386.7</ele>
        <time>2023-04-12T13:44:54.000Z</time>
      </trkpt>
      <trkpt lat="43.54286" lon="6.21997">
        <ele>386.9</ele>
        <time>2023-04-12T13:45:04.000Z</time>
      </trkpt>
      <trkpt lat="43.54282" lon="6.22008">
        <ele>386.6</ele>
        <time>2023-04-12T13:45:14.000Z</time>
      </trkpt>
      <trkpt lat="43.54277" lon="6.2202">
        <ele>386.1</ele>
        <time>2023-04-12T13:45:24.000Z</time>
      </trkpt>
      <trkpt lat="43.54271" lon="6.22033">
        <ele>385.9</ele>
        <time>2023-04-12T13:45:34.000Z</time>
      </trkpt>
      <trkpt lat="43.54264" lon="6.22046">
        <ele>385.5</ele>
        <time>2023-04-12T13:45:44.000Z</time>
      </trkpt>
      <trkpt lat="43.54259" lon="6.22059">
        <ele>384.9</ele>
        <time>2023-04-12T13:45:54.000Z</time>
      </trkpt>
      <trkpt lat="43.54261" lon="6.22061">
        <ele>384.7</ele>
        <time>2023-04-12T13:46:04.000Z</time>
      </trkpt>
      <trkpt lat="43.54259" lon="6.22067">
        <ele>384.4</ele>
        <time>2023-04-12T13:46:14.000Z</time>
      </trkpt>
      <trkpt lat="43.54255" lon="6.22072">
        <ele>384</ele>
        <time>2023-04-12T13:46:24.000Z</time>
      </trkpt>
      <trkpt lat="43.54248" lon="6.22083">
        <ele>383.6</ele>
        <time>2023-04-12T13:46:34.000Z</time>
      </trkpt>
      <trkpt lat="43.54242" lon="6.22094">
        <ele>383.3</ele>
        <time>2023-04-12T13:46:44.000Z</time>
      </trkpt>
      <trkpt lat="43.54235" lon="6.22107">
        <ele>382.6</ele>
        <time>2023-04-12T13:46:54.000Z</time>
      </trkpt>
      <trkpt lat="43.54232" lon="6.22116">
        <ele>382.1</ele>
        <time>2023-04-12T13:47:04.000Z</time>
      </trkpt>
      <trkpt lat="43.54232" lon="6.22118">
        <ele>381.9</ele>
        <time>2023-04-12T13:47:14.000Z</time>
      </trkpt>
      <trkpt lat="43.5423" lon="6.22134">
        <ele>381.5</ele>
        <time>2023-04-12T13:47:24.000Z</time>
      </trkpt>
      <trkpt lat="43.54229" lon="6.2215">
        <ele>381.4</ele>
        <time>2023-04-12T13:47:34.000Z</time>
      </trkpt>
      <trkpt lat="43.54231" lon="6.22166">
        <ele>381.2</ele>
        <time>2023-04-12T13:47:44.000Z</time>
      </trkpt>
      <trkpt lat="43.54234" lon="6.22183">
        <ele>380.9</ele>
        <time>2023-04-12T13:47:54.000Z</time>
      </trkpt>
      <trkpt lat="43.54235" lon="6.22201">
        <ele>380.7</ele>
        <time>2023-04-12T13:48:04.000Z</time>
      </trkpt>
      <trkpt lat="43.54238" lon="6.22221">
        <ele>380.8</ele>
        <time>2023-04-12T13:48:14.000Z</time>
      </trkpt>
      <trkpt lat="43.54241" lon="6.22238">
        <ele>380.7</ele>
        <time>2023-04-12T13:48:24.000Z</time>
      </trkpt>
      <trkpt lat="43.54244" lon="6.22253">
        <ele>380.5</ele>
        <time>2023-04-12T13:48:34.000Z</time>
      </trkpt>
      <trkpt lat="43.54247" lon="6.2227">
        <ele>380.3</ele>
        <time>2023-04-12T13:48:44.000Z</time>
      </trkpt>
      <trkpt lat="43.54252" lon="6.22285">
        <ele>380.1</ele>
        <time>2023-04-12T13:48:54.000Z</time>
      </trkpt>
      <trkpt lat="43.54255" lon="6.22302">
        <ele>379.9</ele>
        <time>2023-04-12T13:49:04.000Z</time>
      </trkpt>
      <trkpt lat="43.54254" lon="6.22318">
        <ele>380</ele>
        <time>2023-04-12T13:49:14.000Z</time>
      </trkpt>
      <trkpt lat="43.54252" lon="6.22333">
        <ele>379.4</ele>
        <time>2023-04-12T13:49:24.000Z</time>
      </trkpt>
      <trkpt lat="43.54248" lon="6.22346">
        <ele>379.1</ele>
        <time>2023-04-12T13:49:34.000Z</time>
      </trkpt>
      <trkpt lat="43.54243" lon="6.22362">
        <ele>378.8</ele>
        <time>2023-04-12T13:49:44.000Z</time>
      </trkpt>
      <trkpt lat="43.54239" lon="6.22377">
        <ele>378.3</ele>
        <time>2023-04-12T13:49:54.000Z</time>
      </trkpt>
      <trkpt lat="43.54234" lon="6.2239">
        <ele>377.5</ele>
        <time>2023-04-12T13:50:04.000Z</time>
      </trkpt>
      <trkpt lat="43.54226" lon="6.22403">
        <ele>376.9</ele>
        <time>2023-04-12T13:50:14.000Z</time>
      </trkpt>
      <trkpt lat="43.54221" lon="6.22416">
        <ele>376.7</ele>
        <time>2023-04-12T13:50:24.000Z</time>
      </trkpt>
      <trkpt lat="43.54214" lon="6.22432">
        <ele>376.4</ele>
        <time>2023-04-12T13:50:34.000Z</time>
      </trkpt>
      <trkpt lat="43.54211" lon="6.22448">
        <ele>375.7</ele>
        <time>2023-04-12T13:50:44.000Z</time>
      </trkpt>
      <trkpt lat="43.54209" lon="6.22464">
        <ele>375.2</ele>
        <time>2023-04-12T13:50:54.000Z</time>
      </trkpt>
      <trkpt lat="43.54207" lon="6.22477">
        <ele>374.4</ele>
        <time>2023-04-12T13:51:04.000Z</time>
      </trkpt>
      <trkpt lat="43.54208" lon="6.22495">
        <ele>373.6</ele>
        <time>2023-04-12T13:51:14.000Z</time>
      </trkpt>
      <trkpt lat="43.54208" lon="6.22511">
        <ele>373</ele>
        <time>2023-04-12T13:51:24.000Z</time>
      </trkpt>
      <trkpt lat="43.54208" lon="6.22528">
        <ele>372.2</ele>
        <time>2023-04-12T13:51:34.000Z</time>
      </trkpt>
      <trkpt lat="43.54206" lon="6.22545">
        <ele>372</ele>
        <time>2023-04-12T13:51:44.000Z</time>
      </trkpt>
      <trkpt lat="43.54211" lon="6.2256">
        <ele>371.5</ele>
        <time>2023-04-12T13:51:54.000Z</time>
      </trkpt>
      <trkpt lat="43.54219" lon="6.22578">
        <ele>370.8</ele>
        <time>2023-04-12T13:52:04.000Z</time>
      </trkpt>
      <trkpt lat="43.54224" lon="6.22594">
        <ele>370.8</ele>
        <time>2023-04-12T13:52:14.000Z</time>
      </trkpt>
      <trkpt lat="43.54224" lon="6.2261">
        <ele>370.8</ele>
        <time>2023-04-12T13:52:24.000Z</time>
      </trkpt>
      <trkpt lat="43.54225" lon="6.22625">
        <ele>370.4</ele>
        <time>2023-04-12T13:52:34.000Z</time>
      </trkpt>
      <trkpt lat="43.54228" lon="6.22644">
        <ele>370.2</ele>
        <time>2023-04-12T13:52:44.000Z</time>
      </trkpt>
      <trkpt lat="43.54234" lon="6.22661">
        <ele>370.2</ele>
        <time>2023-04-12T13:52:54.000Z</time>
      </trkpt>
      <trkpt lat="43.54238" lon="6.22678">
        <ele>370.1</ele>
        <time>2023-04-12T13:53:04.000Z</time>
      </trkpt>
      <trkpt lat="43.54238" lon="6.22691">
        <ele>370</ele>
        <time>2023-04-12T13:53:14.000Z</time>
      </trkpt>
      <trkpt lat="43.5424" lon="6.22708">
        <ele>369.8</ele>
        <time>2023-04-12T13:53:24.000Z</time>
      </trkpt>
      <trkpt lat="43.5424" lon="6.22724">
        <ele>370.1</ele>
        <time>2023-04-12T13:53:34.000Z</time>
      </trkpt>
      <trkpt lat="43.5424" lon="6.22743">
        <ele>370.8</ele>
        <time>2023-04-12T13:53:44.000Z</time>
      </trkpt>
      <trkpt lat="43.54243" lon="6.22756">
        <ele>370.3</ele>
        <time>2023-04-12T13:53:54.000Z</time>
      </trkpt>
      <trkpt lat="43.54242" lon="6.22779">
        <ele>369.9</ele>
        <time>2023-04-12T13:54:04.000Z</time>
      </trkpt>
      <trkpt lat="43.54246" lon="6.22797">
        <ele>369.7</ele>
        <time>2023-04-12T13:54:14.000Z</time>
      </trkpt>
      <trkpt lat="43.54247" lon="6.2282">
        <ele>369.9</ele>
        <time>2023-04-12T13:54:24.000Z</time>
      </trkpt>
      <trkpt lat="43.54251" lon="6.22836">
        <ele>369.5</ele>
        <time>2023-04-12T13:54:34.000Z</time>
      </trkpt>
      <trkpt lat="43.54255" lon="6.22853">
        <ele>369</ele>
        <time>2023-04-12T13:54:44.000Z</time>
      </trkpt>
      <trkpt lat="43.54263" lon="6.22872">
        <ele>369</ele>
        <time>2023-04-12T13:54:54.000Z</time>
      </trkpt>
      <trkpt lat="43.54268" lon="6.22885">
        <ele>368.7</ele>
        <time>2023-04-12T13:55:04.000Z</time>
      </trkpt>
      <trkpt lat="43.54276" lon="6.22891">
        <ele>368.7</ele>
        <time>2023-04-12T13:55:14.000Z</time>
      </trkpt>
      <trkpt lat="43.54277" lon="6.22893">
        <ele>368.6</ele>
        <time>2023-04-12T13:55:24.000Z</time>
      </trkpt>
      <trkpt lat="43.54277" lon="6.22894">
        <ele>368.4</ele>
        <time>2023-04-12T13:55:34.000Z</time>
      </trkpt>
      <trkpt lat="43.54276" lon="6.22894">
        <ele>368.4</ele>
        <time>2023-04-12T13:55:44.000Z</time>
      </trkpt>
      <trkpt lat="43.54274" lon="6.22893">
        <ele>368.4</ele>
        <time>2023-04-12T13:55:54.000Z</time>
      </trkpt>
      <trkpt lat="43.54274" lon="6.22895">
        <ele>368.4</ele>
        <time>2023-04-12T13:56:04.000Z</time>
      </trkpt>
      <trkpt lat="43.54274" lon="6.22908">
        <ele>368.2</ele>
        <time>2023-04-12T13:56:14.000Z</time>
      </trkpt>
      <trkpt lat="43.54272" lon="6.22928">
        <ele>367.6</ele>
        <time>2023-04-12T13:56:24.000Z</time>
      </trkpt>
      <trkpt lat="43.54269" lon="6.22947">
        <ele>367</ele>
        <time>2023-04-12T13:56:34.000Z</time>
      </trkpt>
      <trkpt lat="43.54266" lon="6.22959">
        <ele>366.4</ele>
        <time>2023-04-12T13:56:44.000Z</time>
      </trkpt>
      <trkpt lat="43.54266" lon="6.22973">
        <ele>365.3</ele>
        <time>2023-04-12T13:56:54.000Z</time>
      </trkpt>
      <trkpt lat="43.54268" lon="6.22994">
        <ele>365</ele>
        <time>2023-04-12T13:57:04.000Z</time>
      </trkpt>
      <trkpt lat="43.54272" lon="6.23009">
        <ele>363.9</ele>
        <time>2023-04-12T13:57:14.000Z</time>
      </trkpt>
      <trkpt lat="43.54277" lon="6.23024">
        <ele>362.9</ele>
        <time>2023-04-12T13:57:24.000Z</time>
      </trkpt>
      <trkpt lat="43.54278" lon="6.23037">
        <ele>362.4</ele>
        <time>2023-04-12T13:57:34.000Z</time>
      </trkpt>
      <trkpt lat="43.54278" lon="6.23053">
        <ele>361.1</ele>
        <time>2023-04-12T13:57:44.000Z</time>
      </trkpt>
      <trkpt lat="43.54277" lon="6.23068">
        <ele>359.7</ele>
        <time>2023-04-12T13:57:54.000Z</time>
      </trkpt>
      <trkpt lat="43.54275" lon="6.23084">
        <ele>359.3</ele>
        <time>2023-04-12T13:58:04.000Z</time>
      </trkpt>
      <trkpt lat="43.54278" lon="6.23097">
        <ele>358.6</ele>
        <time>2023-04-12T13:58:14.000Z</time>
      </trkpt>
      <trkpt lat="43.5428" lon="6.23113">
        <ele>358.1</ele>
        <time>2023-04-12T13:58:24.000Z</time>
      </trkpt>
      <trkpt lat="43.54279" lon="6.23114">
        <ele>357.7</ele>
        <time>2023-04-12T13:58:34.000Z</time>
      </trkpt>
      <trkpt lat="43.54279" lon="6.23128">
        <ele>356.6</ele>
        <time>2023-04-12T13:58:44.000Z</time>
      </trkpt>
      <trkpt lat="43.54279" lon="6.2315">
        <ele>358.5</ele>
        <time>2023-04-12T13:58:54.000Z</time>
      </trkpt>
      <trkpt lat="43.54282" lon="6.23165">
        <ele>358.7</ele>
        <time>2023-04-12T13:59:04.000Z</time>
      </trkpt>
      <trkpt lat="43.54281" lon="6.23183">
        <ele>359.2</ele>
        <time>2023-04-12T13:59:14.000Z</time>
      </trkpt>
      <trkpt lat="43.54282" lon="6.23202">
        <ele>359.8</ele>
        <time>2023-04-12T13:59:24.000Z</time>
      </trkpt>
      <trkpt lat="43.54286" lon="6.23219">
        <ele>360.4</ele>
        <time>2023-04-12T13:59:34.000Z</time>
      </trkpt>
      <trkpt lat="43.54286" lon="6.23233">
        <ele>360</ele>
        <time>2023-04-12T13:59:44.000Z</time>
      </trkpt>
      <trkpt lat="43.54288" lon="6.23255">
        <ele>360.2</ele>
        <time>2023-04-12T13:59:54.000Z</time>
      </trkpt>
      <trkpt lat="43.54291" lon="6.23273">
        <ele>359.5</ele>
        <time>2023-04-12T14:00:04.000Z</time>
      </trkpt>
      <trkpt lat="43.54293" lon="6.23292">
        <ele>359.2</ele>
        <time>2023-04-12T14:00:14.000Z</time>
      </trkpt>
      <trkpt lat="43.54294" lon="6.23307">
        <ele>357.9</ele>
        <time>2023-04-12T14:00:24.000Z</time>
      </trkpt>
      <trkpt lat="43.54295" lon="6.23323">
        <ele>357.3</ele>
        <time>2023-04-12T14:00:34.000Z</time>
      </trkpt>
      <trkpt lat="43.5429" lon="6.23348">
        <ele>356.2</ele>
        <time>2023-04-12T14:00:44.000Z</time>
      </trkpt>
      <trkpt lat="43.54282" lon="6.23374">
        <ele>355.3</ele>
        <time>2023-04-12T14:00:54.000Z</time>
      </trkpt>
      <trkpt lat="43.54281" lon="6.234">
        <ele>354.4</ele>
        <time>2023-04-12T14:01:04.000Z</time>
      </trkpt>
      <trkpt lat="43.54281" lon="6.23411">
        <ele>352.7</ele>
        <time>2023-04-12T14:01:14.000Z</time>
      </trkpt>
      <trkpt lat="43.54281" lon="6.23422">
        <ele>352.6</ele>
        <time>2023-04-12T14:01:24.000Z</time>
      </trkpt>
      <trkpt lat="43.54278" lon="6.23435">
        <ele>351.8</ele>
        <time>2023-04-12T14:01:34.000Z</time>
      </trkpt>
      <trkpt lat="43.54273" lon="6.23454">
        <ele>352.5</ele>
        <time>2023-04-12T14:01:44.000Z</time>
      </trkpt>
      <trkpt lat="43.5427" lon="6.23472">
        <ele>353.8</ele>
        <time>2023-04-12T14:01:54.000Z</time>
      </trkpt>
      <trkpt lat="43.54265" lon="6.23488">
        <ele>354.3</ele>
        <time>2023-04-12T14:02:04.000Z</time>
      </trkpt>
      <trkpt lat="43.54259" lon="6.23506">
        <ele>355.7</ele>
        <time>2023-04-12T14:02:14.000Z</time>
      </trkpt>
      <trkpt lat="43.54248" lon="6.23526">
        <ele>355.6</ele>
        <time>2023-04-12T14:02:24.000Z</time>
      </trkpt>
      <trkpt lat="43.54242" lon="6.23534">
        <ele>354.2</ele>
        <time>2023-04-12T14:02:34.000Z</time>
      </trkpt>
      <trkpt lat="43.54234" lon="6.23547">
        <ele>354.6</ele>
        <time>2023-04-12T14:02:44.000Z</time>
      </trkpt>
      <trkpt lat="43.54221" lon="6.23565">
        <ele>355.5</ele>
        <time>2023-04-12T14:02:54.000Z</time>
      </trkpt>
      <trkpt lat="43.54212" lon="6.23569">
        <ele>354.5</ele>
        <time>2023-04-12T14:03:04.000Z</time>
      </trkpt>
      <trkpt lat="43.54205" lon="6.23581">
        <ele>354.4</ele>
        <time>2023-04-12T14:03:14.000Z</time>
      </trkpt>
      <trkpt lat="43.54194" lon="6.23596">
        <ele>354</ele>
        <time>2023-04-12T14:03:24.000Z</time>
      </trkpt>
      <trkpt lat="43.54174" lon="6.23602">
        <ele>353.2</ele>
        <time>2023-04-12T14:03:34.000Z</time>
      </trkpt>
      <trkpt lat="43.54167" lon="6.23613">
        <ele>351.1</ele>
        <time>2023-04-12T14:03:44.000Z</time>
      </trkpt>
      <trkpt lat="43.54155" lon="6.23625">
        <ele>351.3</ele>
        <time>2023-04-12T14:03:54.000Z</time>
      </trkpt>
      <trkpt lat="43.54143" lon="6.23634">
        <ele>350.6</ele>
        <time>2023-04-12T14:04:04.000Z</time>
      </trkpt>
      <trkpt lat="43.54133" lon="6.23637">
        <ele>350.2</ele>
        <time>2023-04-12T14:04:14.000Z</time>
      </trkpt>
      <trkpt lat="43.54116" lon="6.2364">
        <ele>349.4</ele>
        <time>2023-04-12T14:04:24.000Z</time>
      </trkpt>
      <trkpt lat="43.54107" lon="6.2364">
        <ele>348.1</ele>
        <time>2023-04-12T14:04:34.000Z</time>
      </trkpt>
      <trkpt lat="43.54093" lon="6.23636">
        <ele>347.8</ele>
        <time>2023-04-12T14:04:44.000Z</time>
      </trkpt>
      <trkpt lat="43.54084" lon="6.23634">
        <ele>347</ele>
        <time>2023-04-12T14:04:54.000Z</time>
      </trkpt>
      <trkpt lat="43.54066" lon="6.23633">
        <ele>346.6</ele>
        <time>2023-04-12T14:05:04.000Z</time>
      </trkpt>
      <trkpt lat="43.54054" lon="6.23634">
        <ele>344.8</ele>
        <time>2023-04-12T14:05:14.000Z</time>
      </trkpt>
      <trkpt lat="43.54041" lon="6.23641">
        <ele>344.9</ele>
        <time>2023-04-12T14:05:24.000Z</time>
      </trkpt>
      <trkpt lat="43.5403" lon="6.23649">
        <ele>343.7</ele>
        <time>2023-04-12T14:05:34.000Z</time>
      </trkpt>
      <trkpt lat="43.54024" lon="6.23667">
        <ele>343.5</ele>
        <time>2023-04-12T14:05:44.000Z</time>
      </trkpt>
      <trkpt lat="43.54014" lon="6.23686">
        <ele>343.3</ele>
        <time>2023-04-12T14:05:54.000Z</time>
      </trkpt>
      <trkpt lat="43.54008" lon="6.23699">
        <ele>343.5</ele>
        <time>2023-04-12T14:06:04.000Z</time>
      </trkpt>
      <trkpt lat="43.54002" lon="6.2371">
        <ele>343.3</ele>
        <time>2023-04-12T14:06:14.000Z</time>
      </trkpt>
      <trkpt lat="43.5399" lon="6.23728">
        <ele>344.1</ele>
        <time>2023-04-12T14:06:24.000Z</time>
      </trkpt>
      <trkpt lat="43.53984" lon="6.23737">
        <ele>342.6</ele>
        <time>2023-04-12T14:06:34.000Z</time>
      </trkpt>
      <trkpt lat="43.5398" lon="6.23746">
        <ele>342.7</ele>
        <time>2023-04-12T14:06:44.000Z</time>
      </trkpt>
      <trkpt lat="43.53969" lon="6.23759">
        <ele>341.8</ele>
        <time>2023-04-12T14:06:54.000Z</time>
      </trkpt>
      <trkpt lat="43.53957" lon="6.23765">
        <ele>341.3</ele>
        <time>2023-04-12T14:07:04.000Z</time>
      </trkpt>
      <trkpt lat="43.53946" lon="6.2377">
        <ele>340.8</ele>
        <time>2023-04-12T14:07:14.000Z</time>
      </trkpt>
      <trkpt lat="43.53947" lon="6.23781">
        <ele>340.5</ele>
        <time>2023-04-12T14:07:24.000Z</time>
      </trkpt>
      <trkpt lat="43.53947" lon="6.23784">
        <ele>340.6</ele>
        <time>2023-04-12T14:07:34.000Z</time>
      </trkpt>
      <trkpt lat="43.53948" lon="6.23788">
        <ele>340.4</ele>
        <time>2023-04-12T14:07:44.000Z</time>
      </trkpt>
      <trkpt lat="43.53947" lon="6.23795">
        <ele>340.6</ele>
        <time>2023-04-12T14:07:54.000Z</time>
      </trkpt>
      <trkpt lat="43.53948" lon="6.23795">
        <ele>340.6</ele>
        <time>2023-04-12T14:08:04.000Z</time>
      </trkpt>
      <trkpt lat="43.53948" lon="6.23797">
        <ele>340.5</ele>
        <time>2023-04-12T14:08:14.000Z</time>
      </trkpt>
      <trkpt lat="43.53949" lon="6.23796">
        <ele>340.4</ele>
        <time>2023-04-12T14:08:24.000Z</time>
      </trkpt>
      <trkpt lat="43.53945" lon="6.23796">
        <ele>340.4</ele>
        <time>2023-04-12T14:08:34.000Z</time>
      </trkpt>
      <trkpt lat="43.53927" lon="6.23799">
        <ele>339.8</ele>
        <time>2023-04-12T14:08:44.000Z</time>
      </trkpt>
      <trkpt lat="43.53917" lon="6.23806">
        <ele>338.5</ele>
        <time>2023-04-12T14:08:54.000Z</time>
      </trkpt>
      <trkpt lat="43.53926" lon="6.23821">
        <ele>338.1</ele>
        <time>2023-04-12T14:09:04.000Z</time>
      </trkpt>
      <trkpt lat="43.53935" lon="6.23829">
        <ele>337.8</ele>
        <time>2023-04-12T14:09:14.000Z</time>
      </trkpt>
      <trkpt lat="43.53947" lon="6.23835">
        <ele>337.6</ele>
        <time>2023-04-12T14:09:24.000Z</time>
      </trkpt>
      <trkpt lat="43.5396" lon="6.23844">
        <ele>337</ele>
        <time>2023-04-12T14:09:34.000Z</time>
      </trkpt>
      <trkpt lat="43.53967" lon="6.23847">
        <ele>336.1</ele>
        <time>2023-04-12T14:09:44.000Z</time>
      </trkpt>
      <trkpt lat="43.53967" lon="6.23846">
        <ele>335.5</ele>
        <time>2023-04-12T14:09:54.000Z</time>
      </trkpt>
      <trkpt lat="43.53978" lon="6.23854">
        <ele>335.3</ele>
        <time>2023-04-12T14:10:04.000Z</time>
      </trkpt>
      <trkpt lat="43.53986" lon="6.23862">
        <ele>333.9</ele>
        <time>2023-04-12T14:10:14.000Z</time>
      </trkpt>
      <trkpt lat="43.53997" lon="6.23869">
        <ele>332.5</ele>
        <time>2023-04-12T14:10:24.000Z</time>
      </trkpt>
      <trkpt lat="43.54009" lon="6.2388">
        <ele>330.7</ele>
        <time>2023-04-12T14:10:34.000Z</time>
      </trkpt>
      <trkpt lat="43.54021" lon="6.23894">
        <ele>328.8</ele>
        <time>2023-04-12T14:10:44.000Z</time>
      </trkpt>
      <trkpt lat="43.54035" lon="6.23907">
        <ele>326.3</ele>
        <time>2023-04-12T14:10:54.000Z</time>
      </trkpt>
      <trkpt lat="43.54046" lon="6.23917">
        <ele>324.1</ele>
        <time>2023-04-12T14:11:04.000Z</time>
      </trkpt>
      <trkpt lat="43.5406" lon="6.2393">
        <ele>322</ele>
        <time>2023-04-12T14:11:14.000Z</time>
      </trkpt>
      <trkpt lat="43.54071" lon="6.23935">
        <ele>320.5</ele>
        <time>2023-04-12T14:11:24.000Z</time>
      </trkpt>
      <trkpt lat="43.54074" lon="6.23938">
        <ele>318.6</ele>
        <time>2023-04-12T14:11:34.000Z</time>
      </trkpt>
      <trkpt lat="43.5409" lon="6.23943">
        <ele>318.6</ele>
        <time>2023-04-12T14:11:44.000Z</time>
      </trkpt>
      <trkpt lat="43.54095" lon="6.23942">
        <ele>317.7</ele>
        <time>2023-04-12T14:11:54.000Z</time>
      </trkpt>
      <trkpt lat="43.54093" lon="6.23951">
        <ele>316.7</ele>
        <time>2023-04-12T14:12:04.000Z</time>
      </trkpt>
      <trkpt lat="43.5408" lon="6.23953">
        <ele>314.9</ele>
        <time>2023-04-12T14:12:14.000Z</time>
      </trkpt>
      <trkpt lat="43.54066" lon="6.23952">
        <ele>313.3</ele>
        <time>2023-04-12T14:12:24.000Z</time>
      </trkpt>
      <trkpt lat="43.54055" lon="6.23949">
        <ele>311.2</ele>
        <time>2023-04-12T14:12:34.000Z</time>
      </trkpt>
      <trkpt lat="43.54047" lon="6.23948">
        <ele>309.1</ele>
        <time>2023-04-12T14:12:44.000Z</time>
      </trkpt>
      <trkpt lat="43.54043" lon="6.23961">
        <ele>306.6</ele>
        <time>2023-04-12T14:12:54.000Z</time>
      </trkpt>
      <trkpt lat="43.54045" lon="6.23978">
        <ele>304.7</ele>
        <time>2023-04-12T14:13:04.000Z</time>
      </trkpt>
      <trkpt lat="43.54047" lon="6.23986">
        <ele>303.5</ele>
        <time>2023-04-12T14:13:14.000Z</time>
      </trkpt>
      <trkpt lat="43.54055" lon="6.23998">
        <ele>302.7</ele>
        <time>2023-04-12T14:13:24.000Z</time>
      </trkpt>
      <trkpt lat="43.54063" lon="6.24012">
        <ele>303.8</ele>
        <time>2023-04-12T14:13:34.000Z</time>
      </trkpt>
      <trkpt lat="43.54069" lon="6.24027">
        <ele>305</ele>
        <time>2023-04-12T14:13:44.000Z</time>
      </trkpt>
      <trkpt lat="43.54076" lon="6.24039">
        <ele>306.6</ele>
        <time>2023-04-12T14:13:54.000Z</time>
      </trkpt>
      <trkpt lat="43.54081" lon="6.24047">
        <ele>308.2</ele>
        <time>2023-04-12T14:14:04.000Z</time>
      </trkpt>
      <trkpt lat="43.54089" lon="6.24056">
        <ele>311</ele>
        <time>2023-04-12T14:14:14.000Z</time>
      </trkpt>
      <trkpt lat="43.54099" lon="6.24066">
        <ele>313.1</ele>
        <time>2023-04-12T14:14:24.000Z</time>
      </trkpt>
      <trkpt lat="43.54106" lon="6.24075">
        <ele>313.9</ele>
        <time>2023-04-12T14:14:34.000Z</time>
      </trkpt>
      <trkpt lat="43.54111" lon="6.24086">
        <ele>315.6</ele>
        <time>2023-04-12T14:14:44.000Z</time>
      </trkpt>
      <trkpt lat="43.54119" lon="6.24093">
        <ele>317.5</ele>
        <time>2023-04-12T14:14:54.000Z</time>
      </trkpt>
      <trkpt lat="43.5413" lon="6.24104">
        <ele>319.2</ele>
        <time>2023-04-12T14:15:04.000Z</time>
      </trkpt>
      <trkpt lat="43.54141" lon="6.24116">
        <ele>320.8</ele>
        <time>2023-04-12T14:15:14.000Z</time>
      </trkpt>
      <trkpt lat="43.54151" lon="6.24125">
        <ele>321.8</ele>
        <time>2023-04-12T14:15:24.000Z</time>
      </trkpt>
      <trkpt lat="43.54162" lon="6.24127">
        <ele>323.1</ele>
        <time>2023-04-12T14:15:34.000Z</time>
      </trkpt>
      <trkpt lat="43.54173" lon="6.24133">
        <ele>323.8</ele>
        <time>2023-04-12T14:15:44.000Z</time>
      </trkpt>
      <trkpt lat="43.54185" lon="6.24134">
        <ele>325.7</ele>
        <time>2023-04-12T14:15:54.000Z</time>
      </trkpt>
      <trkpt lat="43.54197" lon="6.24135">
        <ele>327.7</ele>
        <time>2023-04-12T14:16:04.000Z</time>
      </trkpt>
      <trkpt lat="43.5421" lon="6.24122">
        <ele>328.9</ele>
        <time>2023-04-12T14:16:14.000Z</time>
      </trkpt>
      <trkpt lat="43.54211" lon="6.24116">
        <ele>329.6</ele>
        <time>2023-04-12T14:16:24.000Z</time>
      </trkpt>
      <trkpt lat="43.54212" lon="6.24117">
        <ele>329.6</ele>
        <time>2023-04-12T14:16:34.000Z</time>
      </trkpt>
      <trkpt lat="43.54213" lon="6.24117">
        <ele>329.5</ele>
        <time>2023-04-12T14:16:44.000Z</time>
      </trkpt>
      <trkpt lat="43.54213" lon="6.24118">
        <ele>329.6</ele>
        <time>2023-04-12T14:16:54.000Z</time>
      </trkpt>
      <trkpt lat="43.54214" lon="6.24121">
        <ele>329.8</ele>
        <time>2023-04-12T14:17:04.000Z</time>
      </trkpt>
      <trkpt lat="43.54215" lon="6.24122">
        <ele>329.7</ele>
        <time>2023-04-12T14:17:14.000Z</time>
      </trkpt>
      <trkpt lat="43.54215" lon="6.24123">
        <ele>329.5</ele>
        <time>2023-04-12T14:17:24.000Z</time>
      </trkpt>
      <trkpt lat="43.54215" lon="6.24125">
        <ele>329.5</ele>
        <time>2023-04-12T14:17:34.000Z</time>
      </trkpt>
      <trkpt lat="43.54215" lon="6.24124">
        <ele>329.4</ele>
        <time>2023-04-12T14:17:44.000Z</time>
      </trkpt>
      <trkpt lat="43.54214" lon="6.24123">
        <ele>329.4</ele>
        <time>2023-04-12T14:17:54.000Z</time>
      </trkpt>
      <trkpt lat="43.54215" lon="6.24125">
        <ele>329.5</ele>
        <time>2023-04-12T14:18:04.000Z</time>
      </trkpt>
      <trkpt lat="43.54214" lon="6.24127">
        <ele>329.5</ele>
        <time>2023-04-12T14:18:14.000Z</time>
      </trkpt>
      <trkpt lat="43.54214" lon="6.24128">
        <ele>329.5</ele>
        <time>2023-04-12T14:18:24.000Z</time>
      </trkpt>
      <trkpt lat="43.54213" lon="6.24126">
        <ele>329.5</ele>
        <time>2023-04-12T14:18:34.000Z</time>
      </trkpt>
      <trkpt lat="43.54214" lon="6.24124">
        <ele>329.4</ele>
        <time>2023-04-12T14:18:44.000Z</time>
      </trkpt>
      <trkpt lat="43.54215" lon="6.24123">
        <ele>329.3</ele>
        <time>2023-04-12T14:18:54.000Z</time>
      </trkpt>
      <trkpt lat="43.54215" lon="6.24122">
        <ele>329.2</ele>
        <time>2023-04-12T14:19:04.000Z</time>
      </trkpt>
      <trkpt lat="43.54215" lon="6.24121">
        <ele>329.3</ele>
        <time>2023-04-12T14:19:14.000Z</time>
      </trkpt>
      <trkpt lat="43.54216" lon="6.2412">
        <ele>329.3</ele>
        <time>2023-04-12T14:19:24.000Z</time>
      </trkpt>
      <trkpt lat="43.54216" lon="6.24119">
        <ele>329.3</ele>
        <time>2023-04-12T14:19:34.000Z</time>
      </trkpt>
      <trkpt lat="43.54215" lon="6.24117">
        <ele>329.3</ele>
        <time>2023-04-12T14:19:44.000Z</time>
      </trkpt>
      <trkpt lat="43.54214" lon="6.24117">
        <ele>329.3</ele>
        <time>2023-04-12T14:19:54.000Z</time>
      </trkpt>
      <trkpt lat="43.54214" lon="6.24117">
        <ele>329.3</ele>
        <time>2023-04-12T14:20:04.000Z</time>
      </trkpt>
      <trkpt lat="43.54214" lon="6.24118">
        <ele>329.4</ele>
        <time>2023-04-12T14:20:14.000Z</time>
      </trkpt>
      <trkpt lat="43.54215" lon="6.24119">
        <ele>329.5</ele>
        <time>2023-04-12T14:20:24.000Z</time>
      </trkpt>
      <trkpt lat="43.54216" lon="6.2412">
        <ele>329.5</ele>
        <time>2023-04-12T14:20:34.000Z</time>
      </trkpt>
      <trkpt lat="43.54216" lon="6.24121">
        <ele>329.5</ele>
        <time>2023-04-12T14:20:44.000Z</time>
      </trkpt>
      <trkpt lat="43.54216" lon="6.24121">
        <ele>329.4</ele>
        <time>2023-04-12T14:20:54.000Z</time>
      </trkpt>
      <trkpt lat="43.54216" lon="6.24122">
        <ele>329.5</ele>
        <time>2023-04-12T14:21:04.000Z</time>
      </trkpt>
      <trkpt lat="43.54217" lon="6.24122">
        <ele>329.4</ele>
        <time>2023-04-12T14:21:14.000Z</time>
      </trkpt>
      <trkpt lat="43.54217" lon="6.24123">
        <ele>329.3</ele>
        <time>2023-04-12T14:21:24.000Z</time>
      </trkpt>
      <trkpt lat="43.54219" lon="6.24129">
        <ele>329.1</ele>
        <time>2023-04-12T14:21:34.000Z</time>
      </trkpt>
      <trkpt lat="43.54222" lon="6.24136">
        <ele>328.1</ele>
        <time>2023-04-12T14:21:44.000Z</time>
      </trkpt>
      <trkpt lat="43.54222" lon="6.24149">
        <ele>327.5</ele>
        <time>2023-04-12T14:21:54.000Z</time>
      </trkpt>
      <trkpt lat="43.54225" lon="6.24162">
        <ele>326.4</ele>
        <time>2023-04-12T14:22:04.000Z</time>
      </trkpt>
      <trkpt lat="43.54234" lon="6.24169">
        <ele>324.7</ele>
        <time>2023-04-12T14:22:14.000Z</time>
      </trkpt>
      <trkpt lat="43.54244" lon="6.24157">
        <ele>323.6</ele>
        <time>2023-04-12T14:22:24.000Z</time>
      </trkpt>
      <trkpt lat="43.54252" lon="6.24145">
        <ele>322.2</ele>
        <time>2023-04-12T14:22:34.000Z</time>
      </trkpt>
      <trkpt lat="43.54257" lon="6.24136">
        <ele>319.7</ele>
        <time>2023-04-12T14:22:44.000Z</time>
      </trkpt>
      <trkpt lat="43.54268" lon="6.24122">
        <ele>318.5</ele>
        <time>2023-04-12T14:22:54.000Z</time>
      </trkpt>
      <trkpt lat="43.54273" lon="6.24116">
        <ele>318.1</ele>
        <time>2023-04-12T14:23:04.000Z</time>
      </trkpt>
      <trkpt lat="43.54284" lon="6.24103">
        <ele>316.8</ele>
        <time>2023-04-12T14:23:14.000Z</time>
      </trkpt>
      <trkpt lat="43.54293" lon="6.24094">
        <ele>315.9</ele>
        <time>2023-04-12T14:23:24.000Z</time>
      </trkpt>
      <trkpt lat="43.54299" lon="6.24086">
        <ele>314.9</ele>
        <time>2023-04-12T14:23:34.000Z</time>
      </trkpt>
      <trkpt lat="43.54312" lon="6.24073">
        <ele>314.1</ele>
        <time>2023-04-12T14:23:44.000Z</time>
      </trkpt>
      <trkpt lat="43.54317" lon="6.24067">
        <ele>312.6</ele>
        <time>2023-04-12T14:23:54.000Z</time>
      </trkpt>
      <trkpt lat="43.54327" lon="6.24054">
        <ele>311.2</ele>
        <time>2023-04-12T14:24:04.000Z</time>
      </trkpt>
      <trkpt lat="43.54337" lon="6.24046">
        <ele>309.2</ele>
        <time>2023-04-12T14:24:14.000Z</time>
      </trkpt>
      <trkpt lat="43.54349" lon="6.2404">
        <ele>308</ele>
        <time>2023-04-12T14:24:24.000Z</time>
      </trkpt>
      <trkpt lat="43.54359" lon="6.24036">
        <ele>306.9</ele>
        <time>2023-04-12T14:24:34.000Z</time>
      </trkpt>
      <trkpt lat="43.54368" lon="6.24034">
        <ele>305.5</ele>
        <time>2023-04-12T14:24:44.000Z</time>
      </trkpt>
      <trkpt lat="43.54378" lon="6.24031">
        <ele>304.3</ele>
        <time>2023-04-12T14:24:54.000Z</time>
      </trkpt>
      <trkpt lat="43.5439" lon="6.24029">
        <ele>303.4</ele>
        <time>2023-04-12T14:25:04.000Z</time>
      </trkpt>
      <trkpt lat="43.54399" lon="6.24024">
        <ele>302.9</ele>
        <time>2023-04-12T14:25:14.000Z</time>
      </trkpt>
      <trkpt lat="43.54411" lon="6.24021">
        <ele>302</ele>
        <time>2023-04-12T14:25:24.000Z</time>
      </trkpt>
      <trkpt lat="43.54419" lon="6.24018">
        <ele>300.5</ele>
        <time>2023-04-12T14:25:34.000Z</time>
      </trkpt>
      <trkpt lat="43.54431" lon="6.24012">
        <ele>299.4</ele>
        <time>2023-04-12T14:25:44.000Z</time>
      </trkpt>
      <trkpt lat="43.54441" lon="6.24004">
        <ele>298</ele>
        <time>2023-04-12T14:25:54.000Z</time>
      </trkpt>
      <trkpt lat="43.54452" lon="6.24">
        <ele>296.7</ele>
        <time>2023-04-12T14:26:04.000Z</time>
      </trkpt>
      <trkpt lat="43.54464" lon="6.23998">
        <ele>296.2</ele>
        <time>2023-04-12T14:26:14.000Z</time>
      </trkpt>
      <trkpt lat="43.54474" lon="6.23996">
        <ele>295.8</ele>
        <time>2023-04-12T14:26:24.000Z</time>
      </trkpt>
      <trkpt lat="43.54483" lon="6.23996">
        <ele>294.2</ele>
        <time>2023-04-12T14:26:34.000Z</time>
      </trkpt>
      <trkpt lat="43.54492" lon="6.23996">
        <ele>293.9</ele>
        <time>2023-04-12T14:26:44.000Z</time>
      </trkpt>
      <trkpt lat="43.54504" lon="6.23994">
        <ele>292.8</ele>
        <time>2023-04-12T14:26:54.000Z</time>
      </trkpt>
      <trkpt lat="43.54515" lon="6.23994">
        <ele>291.5</ele>
        <time>2023-04-12T14:27:04.000Z</time>
      </trkpt>
      <trkpt lat="43.54528" lon="6.23989">
        <ele>290</ele>
        <time>2023-04-12T14:27:14.000Z</time>
      </trkpt>
      <trkpt lat="43.54538" lon="6.23987">
        <ele>287.8</ele>
        <time>2023-04-12T14:27:24.000Z</time>
      </trkpt>
      <trkpt lat="43.54552" lon="6.23982">
        <ele>286.2</ele>
        <time>2023-04-12T14:27:34.000Z</time>
      </trkpt>
      <trkpt lat="43.54563" lon="6.23982">
        <ele>284.9</ele>
        <time>2023-04-12T14:27:44.000Z</time>
      </trkpt>
      <trkpt lat="43.54574" lon="6.23976">
        <ele>283.2</ele>
        <time>2023-04-12T14:27:54.000Z</time>
      </trkpt>
      <trkpt lat="43.54584" lon="6.23972">
        <ele>281.6</ele>
        <time>2023-04-12T14:28:04.000Z</time>
      </trkpt>
      <trkpt lat="43.54597" lon="6.23963">
        <ele>280.2</ele>
        <time>2023-04-12T14:28:14.000Z</time>
      </trkpt>
      <trkpt lat="43.54608" lon="6.23955">
        <ele>279.4</ele>
        <time>2023-04-12T14:28:24.000Z</time>
      </trkpt>
      <trkpt lat="43.5462" lon="6.23939">
        <ele>277.9</ele>
        <time>2023-04-12T14:28:34.000Z</time>
      </trkpt>
      <trkpt lat="43.54624" lon="6.23928">
        <ele>276.6</ele>
        <time>2023-04-12T14:28:44.000Z</time>
      </trkpt>
      <trkpt lat="43.54625" lon="6.23913">
        <ele>275.3</ele>
        <time>2023-04-12T14:28:54.000Z</time>
      </trkpt>
      <trkpt lat="43.54626" lon="6.23893">
        <ele>275.1</ele>
        <time>2023-04-12T14:29:04.000Z</time>
      </trkpt>
      <trkpt lat="43.54627" lon="6.23876">
        <ele>273.9</ele>
        <time>2023-04-12T14:29:14.000Z</time>
      </trkpt>
      <trkpt lat="43.54632" lon="6.23858">
        <ele>272.9</ele>
        <time>2023-04-12T14:29:24.000Z</time>
      </trkpt>
      <trkpt lat="43.54635" lon="6.23847">
        <ele>271.5</ele>
        <time>2023-04-12T14:29:34.000Z</time>
      </trkpt>
      <trkpt lat="43.54643" lon="6.2383">
        <ele>270.3</ele>
        <time>2023-04-12T14:29:44.000Z</time>
      </trkpt>
      <trkpt lat="43.54646" lon="6.23825">
        <ele>269</ele>
        <time>2023-04-12T14:29:54.000Z</time>
      </trkpt>
      <trkpt lat="43.54646" lon="6.23826">
        <ele>268.8</ele>
        <time>2023-04-12T14:30:04.000Z</time>
      </trkpt>
      <trkpt lat="43.54643" lon="6.23829">
        <ele>268.8</ele>
        <time>2023-04-12T14:30:14.000Z</time>
      </trkpt>
      <trkpt lat="43.54642" lon="6.2383">
        <ele>268.8</ele>
        <time>2023-04-12T14:30:24.000Z</time>
      </trkpt>
      <trkpt lat="43.54642" lon="6.23832">
        <ele>268.8</ele>
        <time>2023-04-12T14:30:34.000Z</time>
      </trkpt>
      <trkpt lat="43.54644" lon="6.23831">
        <ele>268.8</ele>
        <time>2023-04-12T14:30:44.000Z</time>
      </trkpt>
      <trkpt lat="43.54644" lon="6.23832">
        <ele>268.8</ele>
        <time>2023-04-12T14:30:54.000Z</time>
      </trkpt>
      <trkpt lat="43.54645" lon="6.23831">
        <ele>268.7</ele>
        <time>2023-04-12T14:31:04.000Z</time>
      </trkpt>
      <trkpt lat="43.54646" lon="6.23831">
        <ele>268.7</ele>
        <time>2023-04-12T14:31:14.000Z</time>
      </trkpt>
      <trkpt lat="43.54647" lon="6.23831">
        <ele>268.8</ele>
        <time>2023-04-12T14:31:24.000Z</time>
      </trkpt>
      <trkpt lat="43.54647" lon="6.23826">
        <ele>268.6</ele>
        <time>2023-04-12T14:31:34.000Z</time>
      </trkpt>
      <trkpt lat="43.54645" lon="6.23825">
        <ele>268.4</ele>
        <time>2023-04-12T14:31:44.000Z</time>
      </trkpt>
      <trkpt lat="43.54645" lon="6.23824">
        <ele>268.5</ele>
        <time>2023-04-12T14:31:54.000Z</time>
      </trkpt>
      <trkpt lat="43.54643" lon="6.23824">
        <ele>268.5</ele>
        <time>2023-04-12T14:32:04.000Z</time>
      </trkpt>
      <trkpt lat="43.54641" lon="6.23824">
        <ele>268.5</ele>
        <time>2023-04-12T14:32:14.000Z</time>
      </trkpt>
      <trkpt lat="43.54641" lon="6.23824">
        <ele>268.4</ele>
        <time>2023-04-12T14:32:24.000Z</time>
      </trkpt>
      <trkpt lat="43.54641" lon="6.23824">
        <ele>268.3</ele>
        <time>2023-04-12T14:32:34.000Z</time>
      </trkpt>
      <trkpt lat="43.54642" lon="6.23823">
        <ele>268.4</ele>
        <time>2023-04-12T14:32:44.000Z</time>
      </trkpt>
      <trkpt lat="43.54642" lon="6.23822">
        <ele>268.4</ele>
        <time>2023-04-12T14:32:54.000Z</time>
      </trkpt>
      <trkpt lat="43.54642" lon="6.23822">
        <ele>268.5</ele>
        <time>2023-04-12T14:33:04.000Z</time>
      </trkpt>
      <trkpt lat="43.54644" lon="6.23824">
        <ele>268.4</ele>
        <time>2023-04-12T14:33:14.000Z</time>
      </trkpt>
      <trkpt lat="43.54653" lon="6.23824">
        <ele>268</ele>
        <time>2023-04-12T14:33:24.000Z</time>
      </trkpt>
      <trkpt lat="43.54662" lon="6.23829">
        <ele>266.1</ele>
        <time>2023-04-12T14:33:34.000Z</time>
      </trkpt>
      <trkpt lat="43.54671" lon="6.23834">
        <ele>263.9</ele>
        <time>2023-04-12T14:33:44.000Z</time>
      </trkpt>
      <trkpt lat="43.54688" lon="6.23828">
        <ele>262.5</ele>
        <time>2023-04-12T14:33:54.000Z</time>
      </trkpt>
      <trkpt lat="43.54703" lon="6.23819">
        <ele>260.1</ele>
        <time>2023-04-12T14:34:04.000Z</time>
      </trkpt>
      <trkpt lat="43.54713" lon="6.23815">
        <ele>259.2</ele>
        <time>2023-04-12T14:34:14.000Z</time>
      </trkpt>
      <trkpt lat="43.54723" lon="6.23809">
        <ele>256.9</ele>
        <time>2023-04-12T14:34:24.000Z</time>
      </trkpt>
      <trkpt lat="43.54734" lon="6.23804">
        <ele>254.8</ele>
        <time>2023-04-12T14:34:34.000Z</time>
      </trkpt>
      <trkpt lat="43.54742" lon="6.23802">
        <ele>252.1</ele>
        <time>2023-04-12T14:34:44.000Z</time>
      </trkpt>
      <trkpt lat="43.54755" lon="6.23793">
        <ele>250.4</ele>
        <time>2023-04-12T14:34:54.000Z</time>
      </trkpt>
      <trkpt lat="43.54762" lon="6.23786">
        <ele>248.6</ele>
        <time>2023-04-12T14:35:04.000Z</time>
      </trkpt>
      <trkpt lat="43.54772" lon="6.23785">
        <ele>247</ele>
        <time>2023-04-12T14:35:14.000Z</time>
      </trkpt>
      <trkpt lat="43.54776" lon="6.23779">
        <ele>245.6</ele>
        <time>2023-04-12T14:35:24.000Z</time>
      </trkpt>
      <trkpt lat="43.54779" lon="6.23777">
        <ele>245</ele>
        <time>2023-04-12T14:35:34.000Z</time>
      </trkpt>
      <trkpt lat="43.5478" lon="6.23775">
        <ele>244.6</ele>
        <time>2023-04-12T14:35:44.000Z</time>
      </trkpt>
      <trkpt lat="43.54781" lon="6.23773">
        <ele>244.3</ele>
        <time>2023-04-12T14:35:54.000Z</time>
      </trkpt>
      <trkpt lat="43.54782" lon="6.23772">
        <ele>244.3</ele>
        <time>2023-04-12T14:36:04.000Z</time>
      </trkpt>
      <trkpt lat="43.54787" lon="6.23767">
        <ele>244.3</ele>
        <time>2023-04-12T14:36:14.000Z</time>
      </trkpt>
      <trkpt lat="43.54795" lon="6.23758">
        <ele>243.2</ele>
        <time>2023-04-12T14:36:24.000Z</time>
      </trkpt>
      <trkpt lat="43.54801" lon="6.23749">
        <ele>241.9</ele>
        <time>2023-04-12T14:36:34.000Z</time>
      </trkpt>
      <trkpt lat="43.54809" lon="6.2373">
        <ele>240.8</ele>
        <time>2023-04-12T14:36:44.000Z</time>
      </trkpt>
      <trkpt lat="43.54816" lon="6.23715">
        <ele>238.9</ele>
        <time>2023-04-12T14:36:54.000Z</time>
      </trkpt>
      <trkpt lat="43.5482" lon="6.23706">
        <ele>236.9</ele>
        <time>2023-04-12T14:37:04.000Z</time>
      </trkpt>
      <trkpt lat="43.54828" lon="6.23695">
        <ele>235.2</ele>
        <time>2023-04-12T14:37:14.000Z</time>
      </trkpt>
      <trkpt lat="43.54838" lon="6.23676">
        <ele>234.4</ele>
        <time>2023-04-12T14:37:24.000Z</time>
      </trkpt>
      <trkpt lat="43.54844" lon="6.23665">
        <ele>233.4</ele>
        <time>2023-04-12T14:37:34.000Z</time>
      </trkpt>
      <trkpt lat="43.54854" lon="6.23651">
        <ele>231.8</ele>
        <time>2023-04-12T14:37:44.000Z</time>
      </trkpt>
      <trkpt lat="43.54869" lon="6.23644">
        <ele>230.9</ele>
        <time>2023-04-12T14:37:54.000Z</time>
      </trkpt>
      <trkpt lat="43.54879" lon="6.23646">
        <ele>229.4</ele>
        <time>2023-04-12T14:38:04.000Z</time>
      </trkpt>
      <trkpt lat="43.54888" lon="6.23646">
        <ele>227.9</ele>
        <time>2023-04-12T14:38:14.000Z</time>
      </trkpt>
      <trkpt lat="43.54901" lon="6.23647">
        <ele>226.4</ele>
        <time>2023-04-12T14:38:24.000Z</time>
      </trkpt>
      <trkpt lat="43.5491" lon="6.23645">
        <ele>225.4</ele>
        <time>2023-04-12T14:38:34.000Z</time>
      </trkpt>
      <trkpt lat="43.54919" lon="6.2365">
        <ele>224</ele>
        <time>2023-04-12T14:38:44.000Z</time>
      </trkpt>
      <trkpt lat="43.54935" lon="6.23653">
        <ele>223.7</ele>
        <time>2023-04-12T14:38:54.000Z</time>
      </trkpt>
      <trkpt lat="43.54947" lon="6.23654">
        <ele>223</ele>
        <time>2023-04-12T14:39:04.000Z</time>
      </trkpt>
      <trkpt lat="43.54957" lon="6.23655">
        <ele>223.4</ele>
        <time>2023-04-12T14:39:14.000Z</time>
      </trkpt>
      <trkpt lat="43.54968" lon="6.23656">
        <ele>223.3</ele>
        <time>2023-04-12T14:39:24.000Z</time>
      </trkpt>
      <trkpt lat="43.54982" lon="6.23652">
        <ele>223.3</ele>
        <time>2023-04-12T14:39:34.000Z</time>
      </trkpt>
      <trkpt lat="43.54988" lon="6.23641">
        <ele>223</ele>
        <time>2023-04-12T14:39:44.000Z</time>
      </trkpt>
      <trkpt lat="43.54987" lon="6.23642">
        <ele>222.8</ele>
        <time>2023-04-12T14:39:54.000Z</time>
      </trkpt>
      <trkpt lat="43.54986" lon="6.23643">
        <ele>222.9</ele>
        <time>2023-04-12T14:40:04.000Z</time>
      </trkpt>
      <trkpt lat="43.54989" lon="6.23633">
        <ele>223</ele>
        <time>2023-04-12T14:40:14.000Z</time>
      </trkpt>
      <trkpt lat="43.54992" lon="6.23617">
        <ele>223.2</ele>
        <time>2023-04-12T14:40:24.000Z</time>
      </trkpt>
      <trkpt lat="43.54996" lon="6.23602">
        <ele>223.4</ele>
        <time>2023-04-12T14:40:34.000Z</time>
      </trkpt>
      <trkpt lat="43.55001" lon="6.23588">
        <ele>223.6</ele>
        <time>2023-04-12T14:40:44.000Z</time>
      </trkpt>
      <trkpt lat="43.55009" lon="6.23576">
        <ele>223.5</ele>
        <time>2023-04-12T14:40:54.000Z</time>
      </trkpt>
      <trkpt lat="43.55016" lon="6.23562">
        <ele>224.1</ele>
        <time>2023-04-12T14:41:04.000Z</time>
      </trkpt>
      <trkpt lat="43.55024" lon="6.23552">
        <ele>223.7</ele>
        <time>2023-04-12T14:41:14.000Z</time>
      </trkpt>
      <trkpt lat="43.55031" lon="6.23538">
        <ele>224.2</ele>
        <time>2023-04-12T14:41:24.000Z</time>
      </trkpt>
      <trkpt lat="43.55036" lon="6.23526">
        <ele>224.8</ele>
        <time>2023-04-12T14:41:34.000Z</time>
      </trkpt>
      <trkpt lat="43.55043" lon="6.23509">
        <ele>225.1</ele>
        <time>2023-04-12T14:41:44.000Z</time>
      </trkpt>
      <trkpt lat="43.55051" lon="6.23494">
        <ele>226.1</ele>
        <time>2023-04-12T14:41:54.000Z</time>
      </trkpt>
      <trkpt lat="43.55058" lon="6.23481">
        <ele>226.3</ele>
        <time>2023-04-12T14:42:04.000Z</time>
      </trkpt>
      <trkpt lat="43.55064" lon="6.23466">
        <ele>227</ele>
        <time>2023-04-12T14:42:14.000Z</time>
      </trkpt>
      <trkpt lat="43.55069" lon="6.23452">
        <ele>227.7</ele>
        <time>2023-04-12T14:42:24.000Z</time>
      </trkpt>
      <trkpt lat="43.55075" lon="6.23433">
        <ele>228.1</ele>
        <time>2023-04-12T14:42:34.000Z</time>
      </trkpt>
      <trkpt lat="43.55075" lon="6.23432">
        <ele>228.7</ele>
        <time>2023-04-12T14:42:44.000Z</time>
      </trkpt>
      <trkpt lat="43.5508" lon="6.23417">
        <ele>228.3</ele>
        <time>2023-04-12T14:42:54.000Z</time>
      </trkpt>
      <trkpt lat="43.55084" lon="6.23399">
        <ele>229.2</ele>
        <time>2023-04-12T14:43:04.000Z</time>
      </trkpt>
      <trkpt lat="43.55089" lon="6.23384">
        <ele>229.3</ele>
        <time>2023-04-12T14:43:14.000Z</time>
      </trkpt>
      <trkpt lat="43.55093" lon="6.23369">
        <ele>230.2</ele>
        <time>2023-04-12T14:43:24.000Z</time>
      </trkpt>
      <trkpt lat="43.55096" lon="6.23352">
        <ele>231.5</ele>
        <time>2023-04-12T14:43:34.000Z</time>
      </trkpt>
      <trkpt lat="43.55096" lon="6.23336">
        <ele>231.5</ele>
        <time>2023-04-12T14:43:44.000Z</time>
      </trkpt>
      <trkpt lat="43.55096" lon="6.23313">
        <ele>232.2</ele>
        <time>2023-04-12T14:43:54.000Z</time>
      </trkpt>
      <trkpt lat="43.55096" lon="6.23298">
        <ele>232.4</ele>
        <time>2023-04-12T14:44:04.000Z</time>
      </trkpt>
      <trkpt lat="43.55097" lon="6.23281">
        <ele>232.4</ele>
        <time>2023-04-12T14:44:14.000Z</time>
      </trkpt>
      <trkpt lat="43.55097" lon="6.23258">
        <ele>232.6</ele>
        <time>2023-04-12T14:44:24.000Z</time>
      </trkpt>
      <trkpt lat="43.55097" lon="6.23243">
        <ele>232.6</ele>
        <time>2023-04-12T14:44:34.000Z</time>
      </trkpt>
      <trkpt lat="43.55097" lon="6.23225">
        <ele>232.9</ele>
        <time>2023-04-12T14:44:44.000Z</time>
      </trkpt>
      <trkpt lat="43.55097" lon="6.2321">
        <ele>232.6</ele>
        <time>2023-04-12T14:44:54.000Z</time>
      </trkpt>
      <trkpt lat="43.55097" lon="6.23192">
        <ele>232.7</ele>
        <time>2023-04-12T14:45:04.000Z</time>
      </trkpt>
      <trkpt lat="43.55095" lon="6.23174">
        <ele>232.9</ele>
        <time>2023-04-12T14:45:14.000Z</time>
      </trkpt>
      <trkpt lat="43.55096" lon="6.23157">
        <ele>232.8</ele>
        <time>2023-04-12T14:45:24.000Z</time>
      </trkpt>
      <trkpt lat="43.55099" lon="6.23139">
        <ele>233.1</ele>
        <time>2023-04-12T14:45:34.000Z</time>
      </trkpt>
      <trkpt lat="43.55102" lon="6.23125">
        <ele>233</ele>
        <time>2023-04-12T14:45:44.000Z</time>
      </trkpt>
      <trkpt lat="43.55107" lon="6.23109">
        <ele>233.8</ele>
        <time>2023-04-12T14:45:54.000Z</time>
      </trkpt>
      <trkpt lat="43.55112" lon="6.23095">
        <ele>233.5</ele>
        <time>2023-04-12T14:46:04.000Z</time>
      </trkpt>
      <trkpt lat="43.55119" lon="6.23081">
        <ele>232.7</ele>
        <time>2023-04-12T14:46:14.000Z</time>
      </trkpt>
      <trkpt lat="43.55125" lon="6.23066">
        <ele>232</ele>
        <time>2023-04-12T14:46:24.000Z</time>
      </trkpt>
      <trkpt lat="43.5513" lon="6.23052">
        <ele>231.6</ele>
        <time>2023-04-12T14:46:34.000Z</time>
      </trkpt>
      <trkpt lat="43.55134" lon="6.2304">
        <ele>231.5</ele>
        <time>2023-04-12T14:46:44.000Z</time>
      </trkpt>
      <trkpt lat="43.55135" lon="6.23036">
        <ele>231.1</ele>
        <time>2023-04-12T14:46:54.000Z</time>
      </trkpt>
      <trkpt lat="43.55132" lon="6.23034">
        <ele>231</ele>
        <time>2023-04-12T14:47:04.000Z</time>
      </trkpt>
      <trkpt lat="43.55131" lon="6.23034">
        <ele>230.9</ele>
        <time>2023-04-12T14:47:14.000Z</time>
      </trkpt>
      <trkpt lat="43.5513" lon="6.23034">
        <ele>230.8</ele>
        <time>2023-04-12T14:47:24.000Z</time>
      </trkpt>
      <trkpt lat="43.5513" lon="6.23034">
        <ele>230.5</ele>
        <time>2023-04-12T14:47:34.000Z</time>
      </trkpt>
      <trkpt lat="43.5513" lon="6.23033">
        <ele>230.3</ele>
        <time>2023-04-12T14:47:44.000Z</time>
      </trkpt>
      <trkpt lat="43.55129" lon="6.23033">
        <ele>230.2</ele>
        <time>2023-04-12T14:47:54.000Z</time>
      </trkpt>
      <trkpt lat="43.55128" lon="6.23036">
        <ele>230.2</ele>
        <time>2023-04-12T14:48:04.000Z</time>
      </trkpt>
      <trkpt lat="43.55126" lon="6.23037">
        <ele>230</ele>
        <time>2023-04-12T14:48:14.000Z</time>
      </trkpt>
      <trkpt lat="43.55126" lon="6.23038">
        <ele>229.8</ele>
        <time>2023-04-12T14:48:24.000Z</time>
      </trkpt>
      <trkpt lat="43.55126" lon="6.23038">
        <ele>229.8</ele>
        <time>2023-04-12T14:48:34.000Z</time>
      </trkpt>
      <trkpt lat="43.55125" lon="6.23037">
        <ele>229.6</ele>
        <time>2023-04-12T14:48:44.000Z</time>
      </trkpt>
      <trkpt lat="43.55125" lon="6.23037">
        <ele>229.7</ele>
        <time>2023-04-12T14:48:54.000Z</time>
      </trkpt>
      <trkpt lat="43.55126" lon="6.23037">
        <ele>229.7</ele>
        <time>2023-04-12T14:49:04.000Z</time>
      </trkpt>
      <trkpt lat="43.55126" lon="6.23037">
        <ele>229.6</ele>
        <time>2023-04-12T14:49:14.000Z</time>
      </trkpt>
      <trkpt lat="43.55126" lon="6.23031">
        <ele>229.5</ele>
        <time>2023-04-12T14:49:24.000Z</time>
      </trkpt>
      <trkpt lat="43.55127" lon="6.23027">
        <ele>229.5</ele>
        <time>2023-04-12T14:49:34.000Z</time>
      </trkpt>
      <trkpt lat="43.55127" lon="6.23027">
        <ele>229.4</ele>
        <time>2023-04-12T14:49:44.000Z</time>
      </trkpt>
      <trkpt lat="43.55127" lon="6.23026">
        <ele>229.3</ele>
        <time>2023-04-12T14:49:54.000Z</time>
      </trkpt>
      <trkpt lat="43.55127" lon="6.23026">
        <ele>229</ele>
        <time>2023-04-12T14:50:04.000Z</time>
      </trkpt>
      <trkpt lat="43.55127" lon="6.23024">
        <ele>228.8</ele>
        <time>2023-04-12T14:50:14.000Z</time>
      </trkpt>
      <trkpt lat="43.5512" lon="6.23015">
        <ele>228.6</ele>
        <time>2023-04-12T14:50:24.000Z</time>
      </trkpt>
      <trkpt lat="43.55112" lon="6.23004">
        <ele>228.8</ele>
        <time>2023-04-12T14:50:34.000Z</time>
      </trkpt>
      <trkpt lat="43.55103" lon="6.22993">
        <ele>229</ele>
        <time>2023-04-12T14:50:44.000Z</time>
      </trkpt>
      <trkpt lat="43.55096" lon="6.22985">
        <ele>229.7</ele>
        <time>2023-04-12T14:50:54.000Z</time>
      </trkpt>
      <trkpt lat="43.55088" lon="6.22977">
        <ele>230</ele>
        <time>2023-04-12T14:51:04.000Z</time>
      </trkpt>
      <trkpt lat="43.55079" lon="6.2297">
        <ele>230.3</ele>
        <time>2023-04-12T14:51:14.000Z</time>
      </trkpt>
      <trkpt lat="43.55064" lon="6.22958">
        <ele>230.8</ele>
        <time>2023-04-12T14:51:24.000Z</time>
      </trkpt>
      <trkpt lat="43.55055" lon="6.22951">
        <ele>230.9</ele>
        <time>2023-04-12T14:51:34.000Z</time>
      </trkpt>
      <trkpt lat="43.55042" lon="6.22945">
        <ele>230.6</ele>
        <time>2023-04-12T14:51:44.000Z</time>
      </trkpt>
      <trkpt lat="43.55032" lon="6.22939">
        <ele>229.5</ele>
        <time>2023-04-12T14:51:54.000Z</time>
      </trkpt>
      <trkpt lat="43.5502" lon="6.22934">
        <ele>228.4</ele>
        <time>2023-04-12T14:52:04.000Z</time>
      </trkpt>
      <trkpt lat="43.55006" lon="6.22929">
        <ele>228.3</ele>
        <time>2023-04-12T14:52:14.000Z</time>
      </trkpt>
      <trkpt lat="43.54996" lon="6.22924">
        <ele>227.1</ele>
        <time>2023-04-12T14:52:24.000Z</time>
      </trkpt>
      <trkpt lat="43.54981" lon="6.22916">
        <ele>227.1</ele>
        <time>2023-04-12T14:52:34.000Z</time>
      </trkpt>
      <trkpt lat="43.54971" lon="6.22911">
        <ele>226.3</ele>
        <time>2023-04-12T14:52:44.000Z</time>
      </trkpt>
      <trkpt lat="43.54957" lon="6.22904">
        <ele>226.4</ele>
        <time>2023-04-12T14:52:54.000Z</time>
      </trkpt>
      <trkpt lat="43.54947" lon="6.22895">
        <ele>226.3</ele>
        <time>2023-04-12T14:53:04.000Z</time>
      </trkpt>
      <trkpt lat="43.54939" lon="6.22882">
        <ele>225.6</ele>
        <time>2023-04-12T14:53:14.000Z</time>
      </trkpt>
      <trkpt lat="43.54932" lon="6.22871">
        <ele>225.5</ele>
        <time>2023-04-12T14:53:24.000Z</time>
      </trkpt>
      <trkpt lat="43.54925" lon="6.22858">
        <ele>225.8</ele>
        <time>2023-04-12T14:53:34.000Z</time>
      </trkpt>
      <trkpt lat="43.54915" lon="6.22843">
        <ele>225.9</ele>
        <time>2023-04-12T14:53:44.000Z</time>
      </trkpt>
      <trkpt lat="43.54905" lon="6.22833">
        <ele>225.6</ele>
        <time>2023-04-12T14:53:54.000Z</time>
      </trkpt>
      <trkpt lat="43.54892" lon="6.22831">
        <ele>225.7</ele>
        <time>2023-04-12T14:54:04.000Z</time>
      </trkpt>
      <trkpt lat="43.54881" lon="6.22827">
        <ele>226.8</ele>
        <time>2023-04-12T14:54:14.000Z</time>
      </trkpt>
      <trkpt lat="43.54869" lon="6.22826">
        <ele>228.2</ele>
        <time>2023-04-12T14:54:24.000Z</time>
      </trkpt>
      <trkpt lat="43.5486" lon="6.22823">
        <ele>230.2</ele>
        <time>2023-04-12T14:54:34.000Z</time>
      </trkpt>
      <trkpt lat="43.54852" lon="6.22815">
        <ele>230.6</ele>
        <time>2023-04-12T14:54:44.000Z</time>
      </trkpt>
      <trkpt lat="43.54839" lon="6.22813">
        <ele>233.1</ele>
        <time>2023-04-12T14:54:54.000Z</time>
      </trkpt>
      <trkpt lat="43.54827" lon="6.22811">
        <ele>235.2</ele>
        <time>2023-04-12T14:55:04.000Z</time>
      </trkpt>
      <trkpt lat="43.54816" lon="6.2281">
        <ele>235.4</ele>
        <time>2023-04-12T14:55:14.000Z</time>
      </trkpt>
      <trkpt lat="43.54814" lon="6.22801">
        <ele>237.9</ele>
        <time>2023-04-12T14:55:24.000Z</time>
      </trkpt>
      <trkpt lat="43.54806" lon="6.22794">
        <ele>237.7</ele>
        <time>2023-04-12T14:55:34.000Z</time>
      </trkpt>
      <trkpt lat="43.54798" lon="6.22793">
        <ele>239.9</ele>
        <time>2023-04-12T14:55:44.000Z</time>
      </trkpt>
      <trkpt lat="43.54789" lon="6.22792">
        <ele>240.6</ele>
        <time>2023-04-12T14:55:54.000Z</time>
      </trkpt>
      <trkpt lat="43.54782" lon="6.22786">
        <ele>242</ele>
        <time>2023-04-12T14:56:04.000Z</time>
      </trkpt>
      <trkpt lat="43.54776" lon="6.22779">
        <ele>244.2</ele>
        <time>2023-04-12T14:56:14.000Z</time>
      </trkpt>
      <trkpt lat="43.54764" lon="6.22774">
        <ele>244.7</ele>
        <time>2023-04-12T14:56:24.000Z</time>
      </trkpt>
      <trkpt lat="43.54756" lon="6.22768">
        <ele>246.6</ele>
        <time>2023-04-12T14:56:34.000Z</time>
      </trkpt>
      <trkpt lat="43.54755" lon="6.22768">
        <ele>247.9</ele>
        <time>2023-04-12T14:56:44.000Z</time>
      </trkpt>
      <trkpt lat="43.54756" lon="6.22769">
        <ele>248</ele>
        <time>2023-04-12T14:56:54.000Z</time>
      </trkpt>
      <trkpt lat="43.54754" lon="6.22769">
        <ele>247.9</ele>
        <time>2023-04-12T14:57:04.000Z</time>
      </trkpt>
      <trkpt lat="43.54753" lon="6.22768">
        <ele>247.8</ele>
        <time>2023-04-12T14:57:14.000Z</time>
      </trkpt>
      <trkpt lat="43.54752" lon="6.22766">
        <ele>247.4</ele>
        <time>2023-04-12T14:57:24.000Z</time>
      </trkpt>
      <trkpt lat="43.5475" lon="6.22764">
        <ele>246.7</ele>
        <time>2023-04-12T14:57:34.000Z</time>
      </trkpt>
      <trkpt lat="43.5474" lon="6.22769">
        <ele>247.1</ele>
        <time>2023-04-12T14:57:44.000Z</time>
      </trkpt>
      <trkpt lat="43.5473" lon="6.22776">
        <ele>248.1</ele>
        <time>2023-04-12T14:57:54.000Z</time>
      </trkpt>
      <trkpt lat="43.54721" lon="6.22787">
        <ele>248.9</ele>
        <time>2023-04-12T14:58:04.000Z</time>
      </trkpt>
      <trkpt lat="43.54712" lon="6.22791">
        <ele>250</ele>
        <time>2023-04-12T14:58:14.000Z</time>
      </trkpt>
      <trkpt lat="43.54705" lon="6.22788">
        <ele>251.2</ele>
        <time>2023-04-12T14:58:24.000Z</time>
      </trkpt>
      <trkpt lat="43.54705" lon="6.22777">
        <ele>253.3</ele>
        <time>2023-04-12T14:58:34.000Z</time>
      </trkpt>
      <trkpt lat="43.54709" lon="6.22765">
        <ele>256.4</ele>
        <time>2023-04-12T14:58:44.000Z</time>
      </trkpt>
      <trkpt lat="43.54709" lon="6.22753">
        <ele>257.7</ele>
        <time>2023-04-12T14:58:54.000Z</time>
      </trkpt>
      <trkpt lat="43.547" lon="6.22745">
        <ele>259.3</ele>
        <time>2023-04-12T14:59:04.000Z</time>
      </trkpt>
      <trkpt lat="43.54696" lon="6.22741">
        <ele>260.1</ele>
        <time>2023-04-12T14:59:14.000Z</time>
      </trkpt>
      <trkpt lat="43.5469" lon="6.22731">
        <ele>260.5</ele>
        <time>2023-04-12T14:59:24.000Z</time>
      </trkpt>
      <trkpt lat="43.54686" lon="6.22724">
        <ele>260.4</ele>
        <time>2023-04-12T14:59:34.000Z</time>
      </trkpt>
      <trkpt lat="43.54678" lon="6.22732">
        <ele>262.4</ele>
        <time>2023-04-12T14:59:44.000Z</time>
      </trkpt>
      <trkpt lat="43.54668" lon="6.22733">
        <ele>263.6</ele>
        <time>2023-04-12T14:59:54.000Z</time>
      </trkpt>
      <trkpt lat="43.54664" lon="6.22725">
        <ele>264.6</ele>
        <time>2023-04-12T15:00:04.000Z</time>
      </trkpt>
      <trkpt lat="43.54671" lon="6.22709">
        <ele>266.4</ele>
        <time>2023-04-12T15:00:14.000Z</time>
      </trkpt>
      <trkpt lat="43.5467" lon="6.22694">
        <ele>266.2</ele>
        <time>2023-04-12T15:00:24.000Z</time>
      </trkpt>
      <trkpt lat="43.5467" lon="6.22686">
        <ele>268.9</ele>
        <time>2023-04-12T15:00:34.000Z</time>
      </trkpt>
      <trkpt lat="43.54668" lon="6.22676">
        <ele>269.9</ele>
        <time>2023-04-12T15:00:44.000Z</time>
      </trkpt>
      <trkpt lat="43.54663" lon="6.2267">
        <ele>272</ele>
        <time>2023-04-12T15:00:54.000Z</time>
      </trkpt>
      <trkpt lat="43.54661" lon="6.22659">
        <ele>274.7</ele>
        <time>2023-04-12T15:01:04.000Z</time>
      </trkpt>
      <trkpt lat="43.54659" lon="6.22646">
        <ele>277.1</ele>
        <time>2023-04-12T15:01:14.000Z</time>
      </trkpt>
      <trkpt lat="43.54662" lon="6.22631">
        <ele>279.5</ele>
        <time>2023-04-12T15:01:24.000Z</time>
      </trkpt>
      <trkpt lat="43.54662" lon="6.22617">
        <ele>281.1</ele>
        <time>2023-04-12T15:01:34.000Z</time>
      </trkpt>
      <trkpt lat="43.54662" lon="6.22602">
        <ele>281.4</ele>
        <time>2023-04-12T15:01:44.000Z</time>
      </trkpt>
      <trkpt lat="43.54662" lon="6.22587">
        <ele>283.1</ele>
        <time>2023-04-12T15:01:54.000Z</time>
      </trkpt>
      <trkpt lat="43.54658" lon="6.22573">
        <ele>286.8</ele>
        <time>2023-04-12T15:02:04.000Z</time>
      </trkpt>
      <trkpt lat="43.54655" lon="6.22562">
        <ele>288.8</ele>
        <time>2023-04-12T15:02:14.000Z</time>
      </trkpt>
      <trkpt lat="43.54649" lon="6.22546">
        <ele>291.1</ele>
        <time>2023-04-12T15:02:24.000Z</time>
      </trkpt>
      <trkpt lat="43.54647" lon="6.22532">
        <ele>292</ele>
        <time>2023-04-12T15:02:34.000Z</time>
      </trkpt>
      <trkpt lat="43.54645" lon="6.22515">
        <ele>294.3</ele>
        <time>2023-04-12T15:02:44.000Z</time>
      </trkpt>
      <trkpt lat="43.54637" lon="6.22496">
        <ele>295.7</ele>
        <time>2023-04-12T15:02:54.000Z</time>
      </trkpt>
      <trkpt lat="43.54632" lon="6.22481">
        <ele>297.7</ele>
        <time>2023-04-12T15:03:04.000Z</time>
      </trkpt>
      <trkpt lat="43.54625" lon="6.22462">
        <ele>297.5</ele>
        <time>2023-04-12T15:03:14.000Z</time>
      </trkpt>
      <trkpt lat="43.54622" lon="6.22447">
        <ele>298.6</ele>
        <time>2023-04-12T15:03:24.000Z</time>
      </trkpt>
      <trkpt lat="43.54616" lon="6.22427">
        <ele>300.2</ele>
        <time>2023-04-12T15:03:34.000Z</time>
      </trkpt>
      <trkpt lat="43.54609" lon="6.22412">
        <ele>300.5</ele>
        <time>2023-04-12T15:03:44.000Z</time>
      </trkpt>
      <trkpt lat="43.54604" lon="6.22399">
        <ele>301.1</ele>
        <time>2023-04-12T15:03:54.000Z</time>
      </trkpt>
      <trkpt lat="43.546" lon="6.22384">
        <ele>302.7</ele>
        <time>2023-04-12T15:04:04.000Z</time>
      </trkpt>
      <trkpt lat="43.54585" lon="6.22374">
        <ele>302.7</ele>
        <time>2023-04-12T15:04:14.000Z</time>
      </trkpt>
      <trkpt lat="43.54572" lon="6.22371">
        <ele>303.4</ele>
        <time>2023-04-12T15:04:24.000Z</time>
      </trkpt>
      <trkpt lat="43.5456" lon="6.22366">
        <ele>303.9</ele>
        <time>2023-04-12T15:04:34.000Z</time>
      </trkpt>
      <trkpt lat="43.54552" lon="6.22353">
        <ele>304</ele>
        <time>2023-04-12T15:04:44.000Z</time>
      </trkpt>
      <trkpt lat="43.54551" lon="6.2234">
        <ele>304.1</ele>
        <time>2023-04-12T15:04:54.000Z</time>
      </trkpt>
      <trkpt lat="43.54555" lon="6.22322">
        <ele>305</ele>
        <time>2023-04-12T15:05:04.000Z</time>
      </trkpt>
      <trkpt lat="43.5456" lon="6.22304">
        <ele>305.6</ele>
        <time>2023-04-12T15:05:14.000Z</time>
      </trkpt>
      <trkpt lat="43.54561" lon="6.22289">
        <ele>306.2</ele>
        <time>2023-04-12T15:05:24.000Z</time>
      </trkpt>
      <trkpt lat="43.54568" lon="6.22274">
        <ele>308.3</ele>
        <time>2023-04-12T15:05:34.000Z</time>
      </trkpt>
      <trkpt lat="43.5457" lon="6.22261">
        <ele>310.6</ele>
        <time>2023-04-12T15:05:44.000Z</time>
      </trkpt>
      <trkpt lat="43.54569" lon="6.22245">
        <ele>312.3</ele>
        <time>2023-04-12T15:05:54.000Z</time>
      </trkpt>
      <trkpt lat="43.54566" lon="6.2223">
        <ele>313.8</ele>
        <time>2023-04-12T15:06:04.000Z</time>
      </trkpt>
      <trkpt lat="43.54563" lon="6.22218">
        <ele>315.3</ele>
        <time>2023-04-12T15:06:14.000Z</time>
      </trkpt>
      <trkpt lat="43.54558" lon="6.22204">
        <ele>317.4</ele>
        <time>2023-04-12T15:06:24.000Z</time>
      </trkpt>
      <trkpt lat="43.54556" lon="6.22187">
        <ele>319.5</ele>
        <time>2023-04-12T15:06:34.000Z</time>
      </trkpt>
      <trkpt lat="43.54556" lon="6.22175">
        <ele>320.6</ele>
        <time>2023-04-12T15:06:44.000Z</time>
      </trkpt>
      <trkpt lat="43.54554" lon="6.22156">
        <ele>322.2</ele>
        <time>2023-04-12T15:06:54.000Z</time>
      </trkpt>
      <trkpt lat="43.54549" lon="6.2214">
        <ele>323.1</ele>
        <time>2023-04-12T15:07:04.000Z</time>
      </trkpt>
      <trkpt lat="43.54544" lon="6.22123">
        <ele>325</ele>
        <time>2023-04-12T15:07:14.000Z</time>
      </trkpt>
      <trkpt lat="43.54542" lon="6.22107">
        <ele>327</ele>
        <time>2023-04-12T15:07:24.000Z</time>
      </trkpt>
      <trkpt lat="43.54538" lon="6.2209">
        <ele>327</ele>
        <time>2023-04-12T15:07:34.000Z</time>
      </trkpt>
      <trkpt lat="43.54532" lon="6.22076">
        <ele>329.6</ele>
        <time>2023-04-12T15:07:44.000Z</time>
      </trkpt>
      <trkpt lat="43.54526" lon="6.22062">
        <ele>331.1</ele>
        <time>2023-04-12T15:07:54.000Z</time>
      </trkpt>
      <trkpt lat="43.54524" lon="6.22051">
        <ele>331</ele>
        <time>2023-04-12T15:08:04.000Z</time>
      </trkpt>
      <trkpt lat="43.54517" lon="6.22038">
        <ele>334.2</ele>
        <time>2023-04-12T15:08:14.000Z</time>
      </trkpt>
      <trkpt lat="43.54516" lon="6.22023">
        <ele>336.5</ele>
        <time>2023-04-12T15:08:24.000Z</time>
      </trkpt>
      <trkpt lat="43.54514" lon="6.22011">
        <ele>337.6</ele>
        <time>2023-04-12T15:08:34.000Z</time>
      </trkpt>
      <trkpt lat="43.54504" lon="6.21995">
        <ele>339.7</ele>
        <time>2023-04-12T15:08:44.000Z</time>
      </trkpt>
      <trkpt lat="43.54497" lon="6.21984">
        <ele>341</ele>
        <time>2023-04-12T15:08:54.000Z</time>
      </trkpt>
      <trkpt lat="43.54491" lon="6.21978">
        <ele>343</ele>
        <time>2023-04-12T15:09:04.000Z</time>
      </trkpt>
      <trkpt lat="43.54486" lon="6.21969">
        <ele>344.4</ele>
        <time>2023-04-12T15:09:14.000Z</time>
      </trkpt>
      <trkpt lat="43.54475" lon="6.21963">
        <ele>346.5</ele>
        <time>2023-04-12T15:09:24.000Z</time>
      </trkpt>
      <trkpt lat="43.54464" lon="6.21953">
        <ele>349.2</ele>
        <time>2023-04-12T15:09:34.000Z</time>
      </trkpt>
      <trkpt lat="43.54458" lon="6.21943">
        <ele>348.7</ele>
        <time>2023-04-12T15:09:44.000Z</time>
      </trkpt>
      <trkpt lat="43.54459" lon="6.21928">
        <ele>351.7</ele>
        <time>2023-04-12T15:09:54.000Z</time>
      </trkpt>
      <trkpt lat="43.54461" lon="6.21914">
        <ele>352.9</ele>
        <time>2023-04-12T15:10:04.000Z</time>
      </trkpt>
      <trkpt lat="43.54462" lon="6.21903">
        <ele>354.1</ele>
        <time>2023-04-12T15:10:14.000Z</time>
      </trkpt>
      <trkpt lat="43.5446" lon="6.21892">
        <ele>355.2</ele>
        <time>2023-04-12T15:10:24.000Z</time>
      </trkpt>
      <trkpt lat="43.54459" lon="6.21876">
        <ele>358.1</ele>
        <time>2023-04-12T15:10:34.000Z</time>
      </trkpt>
      <trkpt lat="43.54459" lon="6.21859">
        <ele>360.1</ele>
        <time>2023-04-12T15:10:44.000Z</time>
      </trkpt>
      <trkpt lat="43.54458" lon="6.21846">
        <ele>361.6</ele>
        <time>2023-04-12T15:10:54.000Z</time>
      </trkpt>
      <trkpt lat="43.54457" lon="6.21832">
        <ele>363.6</ele>
        <time>2023-04-12T15:11:04.000Z</time>
      </trkpt>
      <trkpt lat="43.54456" lon="6.21815">
        <ele>365.9</ele>
        <time>2023-04-12T15:11:14.000Z</time>
      </trkpt>
      <trkpt lat="43.54455" lon="6.218">
        <ele>367.1</ele>
        <time>2023-04-12T15:11:24.000Z</time>
      </trkpt>
      <trkpt lat="43.54453" lon="6.21787">
        <ele>368.2</ele>
        <time>2023-04-12T15:11:34.000Z</time>
      </trkpt>
      <trkpt lat="43.54449" lon="6.21777">
        <ele>369.6</ele>
        <time>2023-04-12T15:11:44.000Z</time>
      </trkpt>
      <trkpt lat="43.54448" lon="6.21764">
        <ele>370.4</ele>
        <time>2023-04-12T15:11:54.000Z</time>
      </trkpt>
      <trkpt lat="43.54446" lon="6.21748">
        <ele>373.5</ele>
        <time>2023-04-12T15:12:04.000Z</time>
      </trkpt>
      <trkpt lat="43.54445" lon="6.21731">
        <ele>376.5</ele>
        <time>2023-04-12T15:12:14.000Z</time>
      </trkpt>
      <trkpt lat="43.54443" lon="6.21719">
        <ele>378.3</ele>
        <time>2023-04-12T15:12:24.000Z</time>
      </trkpt>
      <trkpt lat="43.54443" lon="6.21707">
        <ele>381</ele>
        <time>2023-04-12T15:12:34.000Z</time>
      </trkpt>
      <trkpt lat="43.54435" lon="6.21708">
        <ele>381.1</ele>
        <time>2023-04-12T15:12:44.000Z</time>
      </trkpt>
      <trkpt lat="43.54432" lon="6.21708">
        <ele>380.9</ele>
        <time>2023-04-12T15:12:54.000Z</time>
      </trkpt>
      <trkpt lat="43.54433" lon="6.21706">
        <ele>381.1</ele>
        <time>2023-04-12T15:13:04.000Z</time>
      </trkpt>
      <trkpt lat="43.54434" lon="6.21704">
        <ele>380.7</ele>
        <time>2023-04-12T15:13:14.000Z</time>
      </trkpt>
      <trkpt lat="43.54441" lon="6.21693">
        <ele>381.3</ele>
        <time>2023-04-12T15:13:24.000Z</time>
      </trkpt>
      <trkpt lat="43.54445" lon="6.21683">
        <ele>381.7</ele>
        <time>2023-04-12T15:13:34.000Z</time>
      </trkpt>
      <trkpt lat="43.54445" lon="6.2168">
        <ele>382.5</ele>
        <time>2023-04-12T15:13:44.000Z</time>
      </trkpt>
      <trkpt lat="43.54445" lon="6.21681">
        <ele>382.6</ele>
        <time>2023-04-12T15:13:54.000Z</time>
      </trkpt>
      <trkpt lat="43.54446" lon="6.21683">
        <ele>382.5</ele>
        <time>2023-04-12T15:14:04.000Z</time>
      </trkpt>
      <trkpt lat="43.54447" lon="6.21682">
        <ele>382.4</ele>
        <time>2023-04-12T15:14:14.000Z</time>
      </trkpt>
      <trkpt lat="43.54447" lon="6.21683">
        <ele>382.5</ele>
        <time>2023-04-12T15:14:24.000Z</time>
      </trkpt>
      <trkpt lat="43.54448" lon="6.21684">
        <ele>382.5</ele>
        <time>2023-04-12T15:14:34.000Z</time>
      </trkpt>
      <trkpt lat="43.54448" lon="6.21685">
        <ele>382.5</ele>
        <time>2023-04-12T15:14:44.000Z</time>
      </trkpt>
      <trkpt lat="43.54448" lon="6.21686">
        <ele>382.4</ele>
        <time>2023-04-12T15:14:54.000Z</time>
      </trkpt>
      <trkpt lat="43.54444" lon="6.21685">
        <ele>382.3</ele>
        <time>2023-04-12T15:15:04.000Z</time>
      </trkpt>
      <trkpt lat="43.54439" lon="6.21693">
        <ele>382.4</ele>
        <time>2023-04-12T15:15:14.000Z</time>
      </trkpt>
      <trkpt lat="43.54437" lon="6.21701">
        <ele>382.1</ele>
        <time>2023-04-12T15:15:24.000Z</time>
      </trkpt>
      <trkpt lat="43.54434" lon="6.21707">
        <ele>381.5</ele>
        <time>2023-04-12T15:15:34.000Z</time>
      </trkpt>
      <trkpt lat="43.54433" lon="6.2171">
        <ele>381.3</ele>
        <time>2023-04-12T15:15:44.000Z</time>
      </trkpt>
      <trkpt lat="43.54433" lon="6.21712">
        <ele>381.6</ele>
        <time>2023-04-12T15:15:54.000Z</time>
      </trkpt>
      <trkpt lat="43.54433" lon="6.21712">
        <ele>381.7</ele>
        <time>2023-04-12T15:16:04.000Z</time>
      </trkpt>
      <trkpt lat="43.54433" lon="6.21714">
        <ele>381.7</ele>
        <time>2023-04-12T15:16:14.000Z</time>
      </trkpt>
      <trkpt lat="43.54433" lon="6.21714">
        <ele>381.7</ele>
        <time>2023-04-12T15:16:24.000Z</time>
      </trkpt>
      <trkpt lat="43.54433" lon="6.21713">
        <ele>381.7</ele>
        <time>2023-04-12T15:16:34.000Z</time>
      </trkpt>
      <trkpt lat="43.54433" lon="6.21713">
        <ele>381.7</ele>
        <time>2023-04-12T15:16:44.000Z</time>
      </trkpt>
      <trkpt lat="43.54434" lon="6.21713">
        <ele>381.7</ele>
        <time>2023-04-12T15:16:54.000Z</time>
      </trkpt>
      <trkpt lat="43.54434" lon="6.21714">
        <ele>381.7</ele>
        <time>2023-04-12T15:17:04.000Z</time>
      </trkpt>
      <trkpt lat="43.54434" lon="6.21712">
        <ele>381.6</ele>
        <time>2023-04-12T15:17:14.000Z</time>
      </trkpt>
      <trkpt lat="43.54431" lon="6.21713">
        <ele>381.6</ele>
        <time>2023-04-12T15:17:24.000Z</time>
      </trkpt>
      <trkpt lat="43.54431" lon="6.21712">
        <ele>381.6</ele>
        <time>2023-04-12T15:17:34.000Z</time>
      </trkpt>
      <trkpt lat="43.54429" lon="6.21711">
        <ele>381.7</ele>
        <time>2023-04-12T15:17:44.000Z</time>
      </trkpt>
      <trkpt lat="43.54426" lon="6.21711">
        <ele>381.7</ele>
        <time>2023-04-12T15:17:54.000Z</time>
      </trkpt>
      <trkpt lat="43.54426" lon="6.2171">
        <ele>381.7</ele>
        <time>2023-04-12T15:18:04.000Z</time>
      </trkpt>
      <trkpt lat="43.54427" lon="6.2171">
        <ele>381.6</ele>
        <time>2023-04-12T15:18:14.000Z</time>
      </trkpt>
      <trkpt lat="43.54428" lon="6.21711">
        <ele>381.5</ele>
        <time>2023-04-12T15:18:24.000Z</time>
      </trkpt>
      <trkpt lat="43.54431" lon="6.21711">
        <ele>381.4</ele>
        <time>2023-04-12T15:18:34.000Z</time>
      </trkpt>
      <trkpt lat="43.54431" lon="6.2171">
        <ele>381.4</ele>
        <time>2023-04-12T15:18:44.000Z</time>
      </trkpt>
      <trkpt lat="43.54431" lon="6.2171">
        <ele>381.4</ele>
        <time>2023-04-12T15:18:54.000Z</time>
      </trkpt>
      <trkpt lat="43.54435" lon="6.21709">
        <ele>381.6</ele>
        <time>2023-04-12T15:19:04.000Z</time>
      </trkpt>
      <trkpt lat="43.54437" lon="6.21709">
        <ele>381.6</ele>
        <time>2023-04-12T15:19:14.000Z</time>
      </trkpt>
      <trkpt lat="43.54438" lon="6.21709">
        <ele>381.5</ele>
        <time>2023-04-12T15:19:24.000Z</time>
      </trkpt>
      <trkpt lat="43.54435" lon="6.21712">
        <ele>381.5</ele>
        <time>2023-04-12T15:19:34.000Z</time>
      </trkpt>
      <trkpt lat="43.54433" lon="6.21712">
        <ele>381.6</ele>
        <time>2023-04-12T15:19:44.000Z</time>
      </trkpt>
      <trkpt lat="43.54432" lon="6.21711">
        <ele>381.5</ele>
        <time>2023-04-12T15:19:54.000Z</time>
      </trkpt>
      <trkpt lat="43.54431" lon="6.21709">
        <ele>381.5</ele>
        <time>2023-04-12T15:20:04.000Z</time>
      </trkpt>
      <trkpt lat="43.5443" lon="6.21708">
        <ele>381.5</ele>
        <time>2023-04-12T15:20:14.000Z</time>
      </trkpt>
      <trkpt lat="43.5443" lon="6.21708">
        <ele>381.4</ele>
        <time>2023-04-12T15:20:24.000Z</time>
      </trkpt>
      <trkpt lat="43.54434" lon="6.21708">
        <ele>381.4</ele>
        <time>2023-04-12T15:20:34.000Z</time>
      </trkpt>
      <trkpt lat="43.54435" lon="6.21708">
        <ele>381.4</ele>
        <time>2023-04-12T15:20:44.000Z</time>
      </trkpt>
      <trkpt lat="43.54434" lon="6.21709">
        <ele>381.3</ele>
        <time>2023-04-12T15:20:54.000Z</time>
      </trkpt>
      <trkpt lat="43.54435" lon="6.21709">
        <ele>381.3</ele>
        <time>2023-04-12T15:21:04.000Z</time>
      </trkpt>
      <trkpt lat="43.54435" lon="6.21709">
        <ele>381.3</ele>
        <time>2023-04-12T15:21:14.000Z</time>
      </trkpt>
      <trkpt lat="43.54435" lon="6.2171">
        <ele>381.4</ele>
        <time>2023-04-12T15:21:24.000Z</time>
      </trkpt>
      <trkpt lat="43.54435" lon="6.2171">
        <ele>381.4</ele>
        <time>2023-04-12T15:21:34.000Z</time>
      </trkpt>
      <trkpt lat="43.54435" lon="6.2171">
        <ele>381.4</ele>
        <time>2023-04-12T15:21:44.000Z</time>
      </trkpt>
      <trkpt lat="43.54435" lon="6.2171">
        <ele>381.1</ele>
        <time>2023-04-12T15:21:54.000Z</time>
      </trkpt>
      <trkpt lat="43.54434" lon="6.21707">
        <ele>381.3</ele>
        <time>2023-04-12T15:22:04.000Z</time>
      </trkpt>
      <trkpt lat="43.54434" lon="6.21706">
        <ele>381.2</ele>
        <time>2023-04-12T15:22:14.000Z</time>
      </trkpt>
      <trkpt lat="43.54434" lon="6.21705">
        <ele>381.4</ele>
        <time>2023-04-12T15:22:24.000Z</time>
      </trkpt>
      <trkpt lat="43.54434" lon="6.21704">
        <ele>381.4</ele>
        <time>2023-04-12T15:22:34.000Z</time>
      </trkpt>
      <trkpt lat="43.54438" lon="6.21695">
        <ele>381.3</ele>
        <time>2023-04-12T15:22:44.000Z</time>
      </trkpt>
      <trkpt lat="43.54442" lon="6.21682">
        <ele>381.8</ele>
        <time>2023-04-12T15:22:54.000Z</time>
      </trkpt>
      <trkpt lat="43.54447" lon="6.21666">
        <ele>382.6</ele>
        <time>2023-04-12T15:23:04.000Z</time>
      </trkpt>
      <trkpt lat="43.54447" lon="6.21652">
        <ele>383.5</ele>
        <time>2023-04-12T15:23:14.000Z</time>
      </trkpt>
      <trkpt lat="43.54449" lon="6.21638">
        <ele>384.8</ele>
        <time>2023-04-12T15:23:24.000Z</time>
      </trkpt>
      <trkpt lat="43.5445" lon="6.21625">
        <ele>385.3</ele>
        <time>2023-04-12T15:23:34.000Z</time>
      </trkpt>
      <trkpt lat="43.54449" lon="6.21611">
        <ele>386</ele>
        <time>2023-04-12T15:23:44.000Z</time>
      </trkpt>
      <trkpt lat="43.54452" lon="6.21594">
        <ele>386.8</ele>
        <time>2023-04-12T15:23:54.000Z</time>
      </trkpt>
      <trkpt lat="43.54452" lon="6.21581">
        <ele>387.2</ele>
        <time>2023-04-12T15:24:04.000Z</time>
      </trkpt>
      <trkpt lat="43.54455" lon="6.21565">
        <ele>388.2</ele>
        <time>2023-04-12T15:24:14.000Z</time>
      </trkpt>
      <trkpt lat="43.54456" lon="6.21552">
        <ele>389.1</ele>
        <time>2023-04-12T15:24:24.000Z</time>
      </trkpt>
      <trkpt lat="43.54457" lon="6.21533">
        <ele>389.9</ele>
        <time>2023-04-12T15:24:34.000Z</time>
      </trkpt>
      <trkpt lat="43.5446" lon="6.21515">
        <ele>391</ele>
        <time>2023-04-12T15:24:44.000Z</time>
      </trkpt>
      <trkpt lat="43.54466" lon="6.21496">
        <ele>391.7</ele>
        <time>2023-04-12T15:24:54.000Z</time>
      </trkpt>
      <trkpt lat="43.54468" lon="6.21478">
        <ele>392.3</ele>
        <time>2023-04-12T15:25:04.000Z</time>
      </trkpt>
      <trkpt lat="43.54469" lon="6.2146">
        <ele>393</ele>
        <time>2023-04-12T15:25:14.000Z</time>
      </trkpt>
      <trkpt lat="43.54469" lon="6.21446">
        <ele>394.1</ele>
        <time>2023-04-12T15:25:24.000Z</time>
      </trkpt>
      <trkpt lat="43.5447" lon="6.21428">
        <ele>395.2</ele>
        <time>2023-04-12T15:25:34.000Z</time>
      </trkpt>
      <trkpt lat="43.54474" lon="6.2141">
        <ele>395.7</ele>
        <time>2023-04-12T15:25:44.000Z</time>
      </trkpt>
      <trkpt lat="43.5448" lon="6.21394">
        <ele>396.7</ele>
        <time>2023-04-12T15:25:54.000Z</time>
      </trkpt>
      <trkpt lat="43.54481" lon="6.21379">
        <ele>397.1</ele>
        <time>2023-04-12T15:26:04.000Z</time>
      </trkpt>
      <trkpt lat="43.54488" lon="6.21361">
        <ele>397.6</ele>
        <time>2023-04-12T15:26:14.000Z</time>
      </trkpt>
      <trkpt lat="43.54496" lon="6.21339">
        <ele>398.6</ele>
        <time>2023-04-12T15:26:24.000Z</time>
      </trkpt>
      <trkpt lat="43.54499" lon="6.21326">
        <ele>398.4</ele>
        <time>2023-04-12T15:26:34.000Z</time>
      </trkpt>
      <trkpt lat="43.54507" lon="6.21304">
        <ele>398.2</ele>
        <time>2023-04-12T15:26:44.000Z</time>
      </trkpt>
      <trkpt lat="43.54511" lon="6.21291">
        <ele>397.6</ele>
        <time>2023-04-12T15:26:54.000Z</time>
      </trkpt>
      <trkpt lat="43.54515" lon="6.21269">
        <ele>397.2</ele>
        <time>2023-04-12T15:27:04.000Z</time>
      </trkpt>
      <trkpt lat="43.54521" lon="6.21258">
        <ele>395.8</ele>
        <time>2023-04-12T15:27:14.000Z</time>
      </trkpt>
      <trkpt lat="43.54523" lon="6.21241">
        <ele>395.2</ele>
        <time>2023-04-12T15:27:24.000Z</time>
      </trkpt>
      <trkpt lat="43.54529" lon="6.21216">
        <ele>393.9</ele>
        <time>2023-04-12T15:27:34.000Z</time>
      </trkpt>
      <trkpt lat="43.54537" lon="6.2119">
        <ele>393.4</ele>
        <time>2023-04-12T15:27:44.000Z</time>
      </trkpt>
      <trkpt lat="43.54543" lon="6.2117">
        <ele>392.4</ele>
        <time>2023-04-12T15:27:54.000Z</time>
      </trkpt>
      <trkpt lat="43.54544" lon="6.21161">
        <ele>391.7</ele>
        <time>2023-04-12T15:28:04.000Z</time>
      </trkpt>
      <trkpt lat="43.5455" lon="6.21143">
        <ele>391.5</ele>
        <time>2023-04-12T15:28:14.000Z</time>
      </trkpt>
      <trkpt lat="43.54557" lon="6.21125">
        <ele>391.7</ele>
        <time>2023-04-12T15:28:24.000Z</time>
      </trkpt>
      <trkpt lat="43.54554" lon="6.21108">
        <ele>391.6</ele>
        <time>2023-04-12T15:28:34.000Z</time>
      </trkpt>
      <trkpt lat="43.54548" lon="6.21086">
        <ele>391.8</ele>
        <time>2023-04-12T15:28:44.000Z</time>
      </trkpt>
      <trkpt lat="43.54547" lon="6.21069">
        <ele>393.1</ele>
        <time>2023-04-12T15:28:54.000Z</time>
      </trkpt>
      <trkpt lat="43.54543" lon="6.21053">
        <ele>394.3</ele>
        <time>2023-04-12T15:29:04.000Z</time>
      </trkpt>
      <trkpt lat="43.5454" lon="6.21035">
        <ele>394.7</ele>
        <time>2023-04-12T15:29:14.000Z</time>
      </trkpt>
      <trkpt lat="43.54533" lon="6.21014">
        <ele>396</ele>
        <time>2023-04-12T15:29:24.000Z</time>
      </trkpt>
      <trkpt lat="43.54532" lon="6.20999">
        <ele>395.6</ele>
        <time>2023-04-12T15:29:34.000Z</time>
      </trkpt>
      <trkpt lat="43.54525" lon="6.20985">
        <ele>396.7</ele>
        <time>2023-04-12T15:29:44.000Z</time>
      </trkpt>
      <trkpt lat="43.54516" lon="6.20969">
        <ele>397.9</ele>
        <time>2023-04-12T15:29:54.000Z</time>
      </trkpt>
      <trkpt lat="43.54509" lon="6.20958">
        <ele>398.3</ele>
        <time>2023-04-12T15:30:04.000Z</time>
      </trkpt>
      <trkpt lat="43.54497" lon="6.20938">
        <ele>397.9</ele>
        <time>2023-04-12T15:30:14.000Z</time>
      </trkpt>
      <trkpt lat="43.54493" lon="6.20931">
        <ele>399.4</ele>
        <time>2023-04-12T15:30:24.000Z</time>
      </trkpt>
      <trkpt lat="43.54495" lon="6.20932">
        <ele>399.3</ele>
        <time>2023-04-12T15:30:34.000Z</time>
      </trkpt>
      <trkpt lat="43.54493" lon="6.20927">
        <ele>399.2</ele>
        <time>2023-04-12T15:30:44.000Z</time>
      </trkpt>
      <trkpt lat="43.54493" lon="6.20913">
        <ele>398.6</ele>
        <time>2023-04-12T15:30:54.000Z</time>
      </trkpt>
      <trkpt lat="43.54493" lon="6.20901">
        <ele>397</ele>
        <time>2023-04-12T15:31:04.000Z</time>
      </trkpt>
      <trkpt lat="43.54492" lon="6.20884">
        <ele>395.5</ele>
        <time>2023-04-12T15:31:14.000Z</time>
      </trkpt>
      <trkpt lat="43.54491" lon="6.20863">
        <ele>394.1</ele>
        <time>2023-04-12T15:31:24.000Z</time>
      </trkpt>
      <trkpt lat="43.54491" lon="6.20851">
        <ele>392.4</ele>
        <time>2023-04-12T15:31:34.000Z</time>
      </trkpt>
      <trkpt lat="43.54494" lon="6.20833">
        <ele>390.6</ele>
        <time>2023-04-12T15:31:44.000Z</time>
      </trkpt>
      <trkpt lat="43.54493" lon="6.20815">
        <ele>389.1</ele>
        <time>2023-04-12T15:31:54.000Z</time>
      </trkpt>
      <trkpt lat="43.54493" lon="6.20801">
        <ele>387.6</ele>
        <time>2023-04-12T15:32:04.000Z</time>
      </trkpt>
      <trkpt lat="43.54491" lon="6.2078">
        <ele>386.6</ele>
        <time>2023-04-12T15:32:14.000Z</time>
      </trkpt>
      <trkpt lat="43.54488" lon="6.20765">
        <ele>385.5</ele>
        <time>2023-04-12T15:32:24.000Z</time>
      </trkpt>
      <trkpt lat="43.54483" lon="6.20745">
        <ele>385.6</ele>
        <time>2023-04-12T15:32:34.000Z</time>
      </trkpt>
      <trkpt lat="43.54483" lon="6.20728">
        <ele>385.5</ele>
        <time>2023-04-12T15:32:44.000Z</time>
      </trkpt>
      <trkpt lat="43.54486" lon="6.20707">
        <ele>385.8</ele>
        <time>2023-04-12T15:32:54.000Z</time>
      </trkpt>
      <trkpt lat="43.54484" lon="6.20687">
        <ele>386</ele>
        <time>2023-04-12T15:33:04.000Z</time>
      </trkpt>
      <trkpt lat="43.54487" lon="6.20672">
        <ele>386.4</ele>
        <time>2023-04-12T15:33:14.000Z</time>
      </trkpt>
      <trkpt lat="43.54494" lon="6.20654">
        <ele>386.9</ele>
        <time>2023-04-12T15:33:24.000Z</time>
      </trkpt>
      <trkpt lat="43.54496" lon="6.20636">
        <ele>386.5</ele>
        <time>2023-04-12T15:33:34.000Z</time>
      </trkpt>
      <trkpt lat="43.54498" lon="6.20621">
        <ele>386.1</ele>
        <time>2023-04-12T15:33:44.000Z</time>
      </trkpt>
      <trkpt lat="43.545" lon="6.20602">
        <ele>386.4</ele>
        <time>2023-04-12T15:33:54.000Z</time>
      </trkpt>
      <trkpt lat="43.545" lon="6.20583">
        <ele>387.3</ele>
        <time>2023-04-12T15:34:04.000Z</time>
      </trkpt>
      <trkpt lat="43.54501" lon="6.20566">
        <ele>387.7</ele>
        <time>2023-04-12T15:34:14.000Z</time>
      </trkpt>
      <trkpt lat="43.54507" lon="6.20551">
        <ele>388.7</ele>
        <time>2023-04-12T15:34:24.000Z</time>
      </trkpt>
      <trkpt lat="43.54515" lon="6.20541">
        <ele>388.7</ele>
        <time>2023-04-12T15:34:34.000Z</time>
      </trkpt>
      <trkpt lat="43.54527" lon="6.20543">
        <ele>389</ele>
        <time>2023-04-12T15:34:44.000Z</time>
      </trkpt>
      <trkpt lat="43.54537" lon="6.20541">
        <ele>387.5</ele>
        <time>2023-04-12T15:34:54.000Z</time>
      </trkpt>
      <trkpt lat="43.54546" lon="6.20534">
        <ele>387.1</ele>
        <time>2023-04-12T15:35:04.000Z</time>
      </trkpt>
      <trkpt lat="43.54556" lon="6.20529">
        <ele>386.2</ele>
        <time>2023-04-12T15:35:14.000Z</time>
      </trkpt>
      <trkpt lat="43.54567" lon="6.20521">
        <ele>385.9</ele>
        <time>2023-04-12T15:35:24.000Z</time>
      </trkpt>
      <trkpt lat="43.54578" lon="6.20513">
        <ele>384.9</ele>
        <time>2023-04-12T15:35:34.000Z</time>
      </trkpt>
      <trkpt lat="43.54591" lon="6.20507">
        <ele>384.1</ele>
        <time>2023-04-12T15:35:44.000Z</time>
      </trkpt>
      <trkpt lat="43.54602" lon="6.20499">
        <ele>383.4</ele>
        <time>2023-04-12T15:35:54.000Z</time>
      </trkpt>
      <trkpt lat="43.54613" lon="6.20486">
        <ele>382.4</ele>
        <time>2023-04-12T15:36:04.000Z</time>
      </trkpt>
      <trkpt lat="43.54624" lon="6.20479">
        <ele>381.5</ele>
        <time>2023-04-12T15:36:14.000Z</time>
      </trkpt>
      <trkpt lat="43.54634" lon="6.20471">
        <ele>379.9</ele>
        <time>2023-04-12T15:36:24.000Z</time>
      </trkpt>
      <trkpt lat="43.54646" lon="6.20461">
        <ele>377.7</ele>
        <time>2023-04-12T15:36:34.000Z</time>
      </trkpt>
      <trkpt lat="43.54657" lon="6.20451">
        <ele>375.9</ele>
        <time>2023-04-12T15:36:44.000Z</time>
      </trkpt>
      <trkpt lat="43.54666" lon="6.20444">
        <ele>373.6</ele>
        <time>2023-04-12T15:36:54.000Z</time>
      </trkpt>
      <trkpt lat="43.54672" lon="6.20434">
        <ele>371.3</ele>
        <time>2023-04-12T15:37:04.000Z</time>
      </trkpt>
      <trkpt lat="43.54674" lon="6.20435">
        <ele>369.7</ele>
        <time>2023-04-12T15:37:14.000Z</time>
      </trkpt>
      <trkpt lat="43.54675" lon="6.2043">
        <ele>370.2</ele>
        <time>2023-04-12T15:37:24.000Z</time>
      </trkpt>
      <trkpt lat="43.54677" lon="6.20427">
        <ele>369.1</ele>
        <time>2023-04-12T15:37:34.000Z</time>
      </trkpt>
      <trkpt lat="43.54677" lon="6.20423">
        <ele>369.8</ele>
        <time>2023-04-12T15:37:44.000Z</time>
      </trkpt>
      <trkpt lat="43.54678" lon="6.20422">
        <ele>369.8</ele>
        <time>2023-04-12T15:37:54.000Z</time>
      </trkpt>
      <trkpt lat="43.54678" lon="6.20421">
        <ele>369.8</ele>
        <time>2023-04-12T15:38:04.000Z</time>
      </trkpt>
      <trkpt lat="43.54678" lon="6.20421">
        <ele>369.7</ele>
        <time>2023-04-12T15:38:14.000Z</time>
      </trkpt>
      <trkpt lat="43.54679" lon="6.2042">
        <ele>369.9</ele>
        <time>2023-04-12T15:38:24.000Z</time>
      </trkpt>
      <trkpt lat="43.54679" lon="6.20419">
        <ele>370</ele>
        <time>2023-04-12T15:38:34.000Z</time>
      </trkpt>
      <trkpt lat="43.54679" lon="6.20418">
        <ele>369.9</ele>
        <time>2023-04-12T15:38:44.000Z</time>
      </trkpt>
      <trkpt lat="43.54679" lon="6.20418">
        <ele>369.8</ele>
        <time>2023-04-12T15:38:54.000Z</time>
      </trkpt>
      <trkpt lat="43.54682" lon="6.2042">
        <ele>370</ele>
        <time>2023-04-12T15:39:04.000Z</time>
      </trkpt>
      <trkpt lat="43.54692" lon="6.20413">
        <ele>369.6</ele>
        <time>2023-04-12T15:39:14.000Z</time>
      </trkpt>
      <trkpt lat="43.547" lon="6.20407">
        <ele>368.4</ele>
        <time>2023-04-12T15:39:24.000Z</time>
      </trkpt>
      <trkpt lat="43.54706" lon="6.20401">
        <ele>367.1</ele>
        <time>2023-04-12T15:39:34.000Z</time>
      </trkpt>
      <trkpt lat="43.54716" lon="6.20393">
        <ele>365.9</ele>
        <time>2023-04-12T15:39:44.000Z</time>
      </trkpt>
      <trkpt lat="43.54726" lon="6.20382">
        <ele>365.1</ele>
        <time>2023-04-12T15:39:54.000Z</time>
      </trkpt>
      <trkpt lat="43.54729" lon="6.20368">
        <ele>364.8</ele>
        <time>2023-04-12T15:40:04.000Z</time>
      </trkpt>
      <trkpt lat="43.54724" lon="6.20358">
        <ele>364.2</ele>
        <time>2023-04-12T15:40:14.000Z</time>
      </trkpt>
      <trkpt lat="43.5472" lon="6.20348">
        <ele>363.7</ele>
        <time>2023-04-12T15:40:24.000Z</time>
      </trkpt>
      <trkpt lat="43.5472" lon="6.20347">
        <ele>363.3</ele>
        <time>2023-04-12T15:40:34.000Z</time>
      </trkpt>
      <trkpt lat="43.5472" lon="6.20348">
        <ele>363.3</ele>
        <time>2023-04-12T15:40:44.000Z</time>
      </trkpt>
      <trkpt lat="43.54718" lon="6.20345">
        <ele>362.9</ele>
        <time>2023-04-12T15:40:54.000Z</time>
      </trkpt>
      <trkpt lat="43.54718" lon="6.20342">
        <ele>362</ele>
        <time>2023-04-12T15:41:04.000Z</time>
      </trkpt>
      <trkpt lat="43.54718" lon="6.20342">
        <ele>362.9</ele>
        <time>2023-04-12T15:41:14.000Z</time>
      </trkpt>
      <trkpt lat="43.54718" lon="6.2034">
        <ele>360.4</ele>
        <time>2023-04-12T15:41:24.000Z</time>
      </trkpt>
      <trkpt lat="43.54718" lon="6.20339">
        <ele>363.4</ele>
        <time>2023-04-12T15:41:34.000Z</time>
      </trkpt>
      <trkpt lat="43.54718" lon="6.20338">
        <ele>360.5</ele>
        <time>2023-04-12T15:41:44.000Z</time>
      </trkpt>
      <trkpt lat="43.54718" lon="6.20338">
        <ele>362.8</ele>
        <time>2023-04-12T15:41:54.000Z</time>
      </trkpt>
      <trkpt lat="43.54718" lon="6.20338">
        <ele>362.9</ele>
        <time>2023-04-12T15:42:04.000Z</time>
      </trkpt>
      <trkpt lat="43.54719" lon="6.20338">
        <ele>362.3</ele>
        <time>2023-04-12T15:42:14.000Z</time>
      </trkpt>
      <trkpt lat="43.54718" lon="6.20338">
        <ele>360.1</ele>
        <time>2023-04-12T15:42:24.000Z</time>
      </trkpt>
      <trkpt lat="43.54717" lon="6.20337">
        <ele>360.9</ele>
        <time>2023-04-12T15:42:34.000Z</time>
      </trkpt>
      <trkpt lat="43.54717" lon="6.20338">
        <ele>363</ele>
        <time>2023-04-12T15:42:44.000Z</time>
      </trkpt>
      <trkpt lat="43.54716" lon="6.20338">
        <ele>360.2</ele>
        <time>2023-04-12T15:42:54.000Z</time>
      </trkpt>
      <trkpt lat="43.54716" lon="6.20339">
        <ele>364</ele>
        <time>2023-04-12T15:43:04.000Z</time>
      </trkpt>
      <trkpt lat="43.54716" lon="6.20341">
        <ele>363</ele>
        <time>2023-04-12T15:43:14.000Z</time>
      </trkpt>
      <trkpt lat="43.54716" lon="6.20343">
        <ele>362.3</ele>
        <time>2023-04-12T15:43:24.000Z</time>
      </trkpt>
      <trkpt lat="43.54715" lon="6.20347">
        <ele>362.3</ele>
        <time>2023-04-12T15:43:34.000Z</time>
      </trkpt>
      <trkpt lat="43.54714" lon="6.2035">
        <ele>362.4</ele>
        <time>2023-04-12T15:43:44.000Z</time>
      </trkpt>
      <trkpt lat="43.54716" lon="6.20352">
        <ele>362.4</ele>
        <time>2023-04-12T15:43:54.000Z</time>
      </trkpt>
      <trkpt lat="43.54716" lon="6.20352">
        <ele>362.5</ele>
        <time>2023-04-12T15:44:04.000Z</time>
      </trkpt>
      <trkpt lat="43.54718" lon="6.20349">
        <ele>362.4</ele>
        <time>2023-04-12T15:44:14.000Z</time>
      </trkpt>
      <trkpt lat="43.54718" lon="6.20348">
        <ele>362.5</ele>
        <time>2023-04-12T15:44:24.000Z</time>
      </trkpt>
      <trkpt lat="43.54718" lon="6.20348">
        <ele>362.6</ele>
        <time>2023-04-12T15:44:34.000Z</time>
      </trkpt>
      <trkpt lat="43.54718" lon="6.20348">
        <ele>362.6</ele>
        <time>2023-04-12T15:44:44.000Z</time>
      </trkpt>
      <trkpt lat="43.54718" lon="6.20348">
        <ele>362.7</ele>
        <time>2023-04-12T15:44:54.000Z</time>
      </trkpt>
      <trkpt lat="43.54718" lon="6.20349">
        <ele>362.7</ele>
        <time>2023-04-12T15:45:04.000Z</time>
      </trkpt>
      <trkpt lat="43.54718" lon="6.2035">
        <ele>362.7</ele>
        <time>2023-04-12T15:45:14.000Z</time>
      </trkpt>
      <trkpt lat="43.54716" lon="6.20352">
        <ele>362.7</ele>
        <time>2023-04-12T15:45:24.000Z</time>
      </trkpt>
      <trkpt lat="43.54716" lon="6.20351">
        <ele>362.7</ele>
        <time>2023-04-12T15:45:34.000Z</time>
      </trkpt>
      <trkpt lat="43.54716" lon="6.20349">
        <ele>362.8</ele>
        <time>2023-04-12T15:45:44.000Z</time>
      </trkpt>
      <trkpt lat="43.54716" lon="6.20349">
        <ele>362.3</ele>
        <time>2023-04-12T15:45:54.000Z</time>
      </trkpt>
      <trkpt lat="43.54716" lon="6.20351">
        <ele>363.1</ele>
        <time>2023-04-12T15:46:04.000Z</time>
      </trkpt>
      <trkpt lat="43.54716" lon="6.20351">
        <ele>363.2</ele>
        <time>2023-04-12T15:46:08.000Z</time>
      </trkpt>
    </trkseg>
  </trk>
</gpx>